Time,TemperatureF,DewpointF,PressureIn,WindDirection,WindDirectionDegrees,WindSpeedMPH,WindSpeedGustMPH,Humidity,HourlyPrecipIn,Conditions,Clouds,dailyrainin,SoftwareType,DateUTC
2013-09-09 00:00:00,72.3,69.8,30.06,West,268,0.0,0.0,92,0.00,CLR,,0.00,WeatherDisplay:10.37,2013-09-09 04:00:00,
2013-09-09 00:01:00,72.2,69.7,30.06,West,268,0.0,0.0,92,0.00,CLR,,0.00,WeatherDisplay:10.37,2013-09-09 04:01:00,
2013-09-09 00:02:00,72.3,69.8,30.06,West,268,0.0,0.0,92,0.00,CLR,,0.00,WeatherDisplay:10.37,2013-09-09 04:02:00,
2013-09-09 00:03:00,72.0,69.5,30.06,West,268,0.0,0.0,92,0.00,CLR,,0.00,WeatherDisplay:10.37,2013-09-09 04:03:00,
2013-09-09 00:06:00,71.8,69.3,30.06,West,268,0.0,0.0,92,0.00,CLR,,0.00,WeatherDisplay:10.37,2013-09-09 04:06:00,
2013-09-09 00:07:00,71.9,69.4,30.06,West,268,0.0,0.0,92,0.00,CLR,,0.00,WeatherDisplay:10.37,2013-09-09 04:07:00,
2013-09-09 00:08:00,71.8,69.3,30.06,West,268,0.0,0.0,92,0.00,CLR,,0.00,WeatherDisplay:10.37,2013-09-09 04:08:00,
2013-09-09 00:09:00,71.9,69.4,30.06,West,268,0.0,0.0,92,0.00,CLR,,0.00,WeatherDisplay:10.37,2013-09-09 04:09:00,
2013-09-09 00:11:00,72.2,69.7,30.07,West,268,0.0,0.0,92,0.00,CLR,,0.00,WeatherDisplay:10.37,2013-09-09 04:11:00,
2013-09-09 00:13:00,71.6,69.2,30.07,West,268,0.0,0.0,92,0.00,CLR,,0.00,WeatherDisplay:10.37,2013-09-09 04:13:00,
2013-09-09 00:14:00,72.0,69.5,30.07,West,268,0.0,0.0,92,0.00,CLR,,0.00,WeatherDisplay:10.37,2013-09-09 04:14:00,
2013-09-09 00:15:00,71.8,69.3,30.07,West,268,0.0,0.0,92,0.00,CLR,,0.00,WeatherDisplay:10.37,2013-09-09 04:15:00,
2013-09-09 00:16:00,72.1,69.6,30.06,West,268,0.0,0.0,92,0.00,CLR,,0.00,WeatherDisplay:10.37,2013-09-09 04:16:00,
2013-09-09 00:19:00,71.8,69.3,30.06,West,268,0.0,0.0,92,0.00,CLR,,0.00,WeatherDisplay:10.37,2013-09-09 04:19:00,
2013-09-09 00:20:00,72.1,69.6,30.06,West,268,0.0,0.0,92,0.00,CLR,,0.00,WeatherDisplay:10.37,2013-09-09 04:20:00,
2013-09-09 00:21:00,72.0,69.5,30.06,West,268,0.0,0.0,92,0.00,CLR,,0.00,WeatherDisplay:10.37,2013-09-09 04:21:00,
2013-09-09 00:25:00,71.9,69.4,30.07,West,268,0.0,0.0,92,0.00,CLR,,0.00,WeatherDisplay:10.37,2013-09-09 04:25:00,
2013-09-09 00:26:00,72.0,69.5,30.07,West,268,0.0,0.0,92,0.00,CLR,,0.00,WeatherDisplay:10.37,2013-09-09 04:26:00,
2013-09-09 00:30:00,71.7,69.3,30.07,West,268,0.0,0.0,92,0.00,CLR,,0.00,WeatherDisplay:10.37,2013-09-09 04:30:00,
2013-09-09 00:31:00,71.6,69.2,30.07,West,268,0.0,0.0,92,0.00,CLR,,0.00,WeatherDisplay:10.37,2013-09-09 04:31:00,
2013-09-09 00:32:00,71.8,69.3,30.07,West,268,0.0,0.0,92,0.00,CLR,,0.00,WeatherDisplay:10.37,2013-09-09 04:32:00,
2013-09-09 00:35:00,71.8,69.7,30.07,West,268,0.0,0.0,93,0.00,CLR,,0.00,WeatherDisplay:10.37,2013-09-09 04:35:00,
2013-09-09 00:36:00,71.6,69.5,30.07,West,268,0.0,0.0,93,0.00,CLR,,0.00,WeatherDisplay:10.37,2013-09-09 04:36:00,
2013-09-09 00:37:00,71.8,69.7,30.07,West,268,0.0,0.0,93,0.00,CLR,,0.00,WeatherDisplay:10.37,2013-09-09 04:37:00,
2013-09-09 00:41:00,71.6,69.8,30.07,West,268,0.0,0.0,94,0.00,CLR,,0.00,WeatherDisplay:10.37,2013-09-09 04:41:00,
2013-09-09 00:42:00,71.5,69.4,30.07,West,268,0.0,0.0,93,0.00,CLR,,0.00,WeatherDisplay:10.37,2013-09-09 04:42:00,
2013-09-09 00:46:00,72.0,69.9,30.07,West,268,0.0,0.0,93,0.00,CLR,,0.00,WeatherDisplay:10.37,2013-09-09 04:46:00,
2013-09-09 00:47:00,72.0,69.9,30.07,West,268,0.0,0.0,93,0.00,CLR,,0.00,WeatherDisplay:10.37,2013-09-09 04:47:00,
2013-09-09 00:48:00,71.9,69.8,30.07,West,268,0.0,0.0,93,0.00,CLR,,0.00,WeatherDisplay:10.37,2013-09-09 04:48:00,
2013-09-09 00:52:00,72.1,70.0,30.07,West,268,0.0,0.0,93,0.00,CLR,,0.00,WeatherDisplay:10.37,2013-09-09 04:52:00,
2013-09-09 00:53:00,71.5,69.4,30.07,West,268,0.0,0.0,93,0.00,CLR,,0.00,WeatherDisplay:10.37,2013-09-09 04:53:00,
2013-09-09 00:57:00,71.7,69.6,30.07,West,268,0.0,0.0,93,0.00,CLR,,0.00,WeatherDisplay:10.37,2013-09-09 04:57:00,
2013-09-09 00:58:00,71.7,69.6,30.07,West,268,0.0,0.0,93,0.00,CLR,,0.00,WeatherDisplay:10.37,2013-09-09 04:58:00,
2013-09-09 01:00:00,71.9,69.8,30.07,West,268,0.0,0.0,93,0.00,CLR,,0.00,WeatherDisplay:10.37,2013-09-09 05:00:00,
2013-09-09 01:02:00,71.7,69.6,30.07,West,268,0.0,0.0,93,0.00,CLR,,0.00,WeatherDisplay:10.37,2013-09-09 05:02:00,
2013-09-09 01:03:00,71.9,69.8,30.07,West,268,0.0,0.0,93,0.00,CLR,,0.00,WeatherDisplay:10.37,2013-09-09 05:03:00,
2013-09-09 01:05:00,71.5,69.4,30.07,West,268,0.0,0.0,93,0.00,CLR,,0.00,WeatherDisplay:10.37,2013-09-09 05:05:00,
2013-09-09 01:07:00,71.6,69.5,30.07,West,268,0.0,0.0,93,0.00,CLR,,0.00,WeatherDisplay:10.37,2013-09-09 05:07:00,
2013-09-09 01:08:00,71.4,69.3,30.07,West,268,0.0,0.0,93,0.00,CLR,,0.00,WeatherDisplay:10.37,2013-09-09 05:08:00,
2013-09-09 01:10:00,71.5,69.4,30.08,West,268,0.0,0.0,93,0.00,CLR,,0.00,WeatherDisplay:10.37,2013-09-09 05:10:00,
2013-09-09 01:13:00,71.7,69.6,30.08,West,268,0.0,0.0,93,0.00,CLR,,0.00,WeatherDisplay:10.37,2013-09-09 05:13:00,
2013-09-09 01:15:00,71.9,69.8,30.08,West,268,0.0,0.0,93,0.00,CLR,,0.00,WeatherDisplay:10.37,2013-09-09 05:15:00,
2013-09-09 01:16:00,71.9,69.8,30.08,West,268,0.0,0.0,93,0.00,CLR,,0.00,WeatherDisplay:10.37,2013-09-09 05:16:00,
2013-09-09 01:18:00,71.9,69.8,30.08,West,268,0.0,0.0,93,0.00,CLR,,0.00,WeatherDisplay:10.37,2013-09-09 05:18:00,
2013-09-09 01:20:00,71.6,69.5,30.08,West,268,0.0,0.0,93,0.00,CLR,,0.00,WeatherDisplay:10.37,2013-09-09 05:20:00,
2013-09-09 01:21:00,71.6,69.2,30.08,West,268,0.0,0.0,92,0.00,CLR,,0.00,WeatherDisplay:10.37,2013-09-09 05:21:00,
2013-09-09 01:22:00,71.6,69.2,30.08,West,268,0.0,0.0,92,0.00,CLR,,0.00,WeatherDisplay:10.37,2013-09-09 05:22:00,
2013-09-09 01:23:00,71.8,69.3,30.08,West,268,0.0,0.0,92,0.00,CLR,,0.00,WeatherDisplay:10.37,2013-09-09 05:23:00,
2013-09-09 01:24:00,71.9,69.4,30.08,West,268,0.0,0.0,92,0.00,CLR,,0.00,WeatherDisplay:10.37,2013-09-09 05:24:00,
2013-09-09 01:25:00,71.5,69.1,30.08,West,268,0.0,0.0,92,0.00,CLR,,0.00,WeatherDisplay:10.37,2013-09-09 05:25:00,
2013-09-09 01:27:00,71.4,69.0,30.08,West,268,0.0,0.0,92,0.00,CLR,,0.00,WeatherDisplay:10.37,2013-09-09 05:27:00,
2013-09-09 01:28:00,71.5,69.1,30.08,West,268,0.0,0.0,92,0.00,CLR,,0.00,WeatherDisplay:10.37,2013-09-09 05:28:00,
2013-09-09 01:29:00,71.5,69.1,30.08,West,268,0.0,0.0,92,0.00,CLR,,0.00,WeatherDisplay:10.37,2013-09-09 05:29:00,
2013-09-09 01:30:00,71.6,69.2,30.08,West,268,0.0,0.0,92,0.00,CLR,,0.00,WeatherDisplay:10.37,2013-09-09 05:30:00,
2013-09-09 01:32:00,71.2,69.1,30.08,West,268,0.0,0.0,93,0.00,CLR,,0.00,WeatherDisplay:10.37,2013-09-09 05:32:00,
2013-09-09 01:33:00,71.4,69.3,30.08,West,268,0.0,0.0,93,0.00,CLR,,0.00,WeatherDisplay:10.37,2013-09-09 05:33:00,
2013-09-09 01:34:00,71.5,69.4,30.08,West,268,0.0,0.0,93,0.00,CLR,,0.00,WeatherDisplay:10.37,2013-09-09 05:34:00,
2013-09-09 01:35:00,71.4,69.3,30.08,West,268,0.0,0.0,93,0.00,CLR,,0.00,WeatherDisplay:10.37,2013-09-09 05:35:00,
2013-09-09 01:37:00,71.4,69.0,30.08,West,268,0.0,0.0,92,0.00,CLR,,0.00,WeatherDisplay:10.37,2013-09-09 05:37:00,
2013-09-09 01:38:00,71.5,69.1,30.08,West,268,0.0,0.0,92,0.00,CLR,,0.00,WeatherDisplay:10.37,2013-09-09 05:38:00,
2013-09-09 01:39:00,71.3,68.9,30.08,West,268,0.0,0.0,92,0.00,CLR,,0.00,WeatherDisplay:10.37,2013-09-09 05:39:00,
2013-09-09 01:40:00,71.5,69.1,30.08,West,268,0.0,0.0,92,0.00,CLR,,0.00,WeatherDisplay:10.37,2013-09-09 05:40:00,
2013-09-09 01:42:00,71.5,69.1,30.08,West,268,0.0,0.0,92,0.00,CLR,,0.00,WeatherDisplay:10.37,2013-09-09 05:42:00,
2013-09-09 01:43:00,71.3,68.9,30.08,West,268,0.0,0.0,92,0.00,CLR,,0.00,WeatherDisplay:10.37,2013-09-09 05:43:00,
2013-09-09 01:44:00,71.7,69.3,30.08,West,268,0.0,0.0,92,0.00,CLR,,0.00,WeatherDisplay:10.37,2013-09-09 05:44:00,
2013-09-09 01:45:00,71.3,68.9,30.08,West,268,0.0,0.0,92,0.00,CLR,,0.00,WeatherDisplay:10.37,2013-09-09 05:45:00,
2013-09-09 01:46:00,71.1,68.7,30.08,West,268,0.0,0.0,92,0.00,CLR,,0.00,WeatherDisplay:10.37,2013-09-09 05:46:00,
2013-09-09 01:48:00,71.3,68.9,30.08,West,268,0.0,0.0,92,0.00,CLR,,0.00,WeatherDisplay:10.37,2013-09-09 05:48:00,
2013-09-09 01:49:00,71.2,68.8,30.08,West,268,0.0,0.0,92,0.00,CLR,,0.00,WeatherDisplay:10.37,2013-09-09 05:49:00,
2013-09-09 01:50:00,71.4,69.0,30.08,West,268,0.0,0.0,92,0.00,CLR,,0.00,WeatherDisplay:10.37,2013-09-09 05:50:00,
2013-09-09 01:51:00,71.5,69.1,30.08,West,268,0.0,0.0,92,0.00,CLR,,0.00,WeatherDisplay:10.37,2013-09-09 05:51:00,
2013-09-09 01:53:00,71.4,69.0,30.08,West,268,0.0,0.0,92,0.00,CLR,,0.00,WeatherDisplay:10.37,2013-09-09 05:53:00,
2013-09-09 01:54:00,71.3,68.9,30.08,West,268,0.0,0.0,92,0.00,CLR,,0.00,WeatherDisplay:10.37,2013-09-09 05:54:00,
2013-09-09 01:56:00,71.3,68.9,30.09,West,268,0.0,0.0,92,0.00,CLR,,0.00,WeatherDisplay:10.37,2013-09-09 05:56:00,
2013-09-09 01:57:00,71.2,68.8,30.09,West,268,0.0,0.0,92,0.00,CLR,,0.00,WeatherDisplay:10.37,2013-09-09 05:57:00,
2013-09-09 01:59:00,71.5,69.1,30.09,West,268,0.0,0.0,92,0.00,CLR,,0.00,WeatherDisplay:10.37,2013-09-09 05:59:00,
2013-09-09 02:00:00,71.3,68.9,30.09,West,268,0.0,0.0,92,0.00,CLR,,0.00,WeatherDisplay:10.37,2013-09-09 06:00:00,
2013-09-09 02:01:00,71.3,68.9,30.09,West,268,0.0,0.0,92,0.00,CLR,,0.00,WeatherDisplay:10.37,2013-09-09 06:01:00,
2013-09-09 02:02:00,71.4,69.0,30.09,West,268,0.0,0.0,92,0.00,CLR,,0.00,WeatherDisplay:10.37,2013-09-09 06:02:00,
2013-09-09 02:04:00,71.1,68.7,30.09,West,268,0.0,0.0,92,0.00,CLR,,0.00,WeatherDisplay:10.37,2013-09-09 06:04:00,
2013-09-09 02:05:00,71.5,69.1,30.09,West,268,0.0,0.0,92,0.00,CLR,,0.00,WeatherDisplay:10.37,2013-09-09 06:05:00,
2013-09-09 02:06:00,71.1,68.7,30.09,West,268,0.0,0.0,92,0.00,CLR,,0.00,WeatherDisplay:10.37,2013-09-09 06:06:00,
2013-09-09 02:08:00,71.5,69.1,30.09,West,268,0.0,0.0,92,0.00,CLR,,0.00,WeatherDisplay:10.37,2013-09-09 06:08:00,
2013-09-09 02:09:00,70.9,68.5,30.09,West,268,0.0,0.0,92,0.00,CLR,,0.00,WeatherDisplay:10.37,2013-09-09 06:09:00,
2013-09-09 02:10:00,71.1,68.7,30.09,West,268,0.0,0.0,92,0.00,CLR,,0.00,WeatherDisplay:10.37,2013-09-09 06:10:00,
2013-09-09 02:12:00,71.0,68.6,30.09,West,268,0.0,0.0,92,0.00,CLR,,0.00,WeatherDisplay:10.37,2013-09-09 06:12:00,
2013-09-09 02:14:00,70.8,68.4,30.09,West,268,0.0,0.0,92,0.00,CLR,,0.00,WeatherDisplay:10.37,2013-09-09 06:14:00,
2013-09-09 02:15:00,71.2,68.8,30.09,West,268,0.0,0.0,92,0.00,CLR,,0.00,WeatherDisplay:10.37,2013-09-09 06:15:00,
2013-09-09 02:16:00,70.9,68.5,30.09,West,268,0.0,0.0,92,0.00,CLR,,0.00,WeatherDisplay:10.37,2013-09-09 06:16:00,
2013-09-09 02:17:00,70.8,68.4,30.09,West,268,0.0,0.0,92,0.00,CLR,,0.00,WeatherDisplay:10.37,2013-09-09 06:17:00,
2013-09-09 02:19:00,71.0,68.6,30.09,West,268,0.0,0.0,92,0.00,CLR,,0.00,WeatherDisplay:10.37,2013-09-09 06:19:00,
2013-09-09 02:20:00,71.1,68.7,30.09,West,268,0.0,0.0,92,0.00,CLR,,0.00,WeatherDisplay:10.37,2013-09-09 06:20:00,
2013-09-09 02:22:00,71.0,68.6,30.09,West,268,0.0,0.0,92,0.00,CLR,,0.00,WeatherDisplay:10.37,2013-09-09 06:22:00,
2013-09-09 02:24:00,70.6,68.2,30.09,West,268,0.0,0.0,92,0.00,CLR,,0.00,WeatherDisplay:10.37,2013-09-09 06:24:00,
2013-09-09 02:25:00,71.1,68.7,30.09,West,268,0.0,0.0,92,0.00,CLR,,0.00,WeatherDisplay:10.37,2013-09-09 06:25:00,
2013-09-09 02:26:00,71.3,68.9,30.09,West,268,0.0,0.0,92,0.00,CLR,,0.00,WeatherDisplay:10.37,2013-09-09 06:26:00,
2013-09-09 02:27:00,71.0,68.6,30.09,West,268,0.0,0.0,92,0.00,CLR,,0.00,WeatherDisplay:10.37,2013-09-09 06:27:00,
2013-09-09 02:29:00,70.7,68.3,30.10,West,268,0.0,0.0,92,0.00,CLR,,0.00,WeatherDisplay:10.37,2013-09-09 06:29:00,
2013-09-09 02:31:00,70.6,68.2,30.10,West,268,0.0,0.0,92,0.00,CLR,,0.00,WeatherDisplay:10.37,2013-09-09 06:31:00,
2013-09-09 02:33:00,70.7,68.3,30.10,West,268,0.0,0.0,92,0.00,CLR,,0.00,WeatherDisplay:10.37,2013-09-09 06:33:00,
2013-09-09 02:34:00,70.6,68.2,30.09,West,268,0.0,0.0,92,0.00,CLR,,0.00,WeatherDisplay:10.37,2013-09-09 06:34:00,
2013-09-09 02:36:00,70.6,68.2,30.09,West,268,0.0,0.0,92,0.00,CLR,,0.00,WeatherDisplay:10.37,2013-09-09 06:36:00,
2013-09-09 02:38:00,70.9,68.5,30.09,West,268,0.0,0.0,92,0.00,CLR,,0.00,WeatherDisplay:10.37,2013-09-09 06:38:00,
2013-09-09 02:39:00,70.6,68.2,30.09,West,268,0.0,0.0,92,0.00,CLR,,0.00,WeatherDisplay:10.37,2013-09-09 06:39:00,
2013-09-09 02:40:00,70.7,68.3,30.09,West,268,0.0,0.0,92,0.00,CLR,,0.00,WeatherDisplay:10.37,2013-09-09 06:40:00,
2013-09-09 02:41:00,70.7,68.3,30.09,West,268,0.0,0.0,92,0.00,CLR,,0.00,WeatherDisplay:10.37,2013-09-09 06:41:00,
2013-09-09 02:43:00,70.8,68.4,30.09,West,268,0.0,0.0,92,0.00,CLR,,0.00,WeatherDisplay:10.37,2013-09-09 06:43:00,
2013-09-09 02:44:00,70.5,68.4,30.09,West,268,0.0,0.0,93,0.00,CLR,,0.00,WeatherDisplay:10.37,2013-09-09 06:44:00,
2013-09-09 02:45:00,70.6,68.5,30.09,West,268,0.0,0.0,93,0.00,CLR,,0.00,WeatherDisplay:10.37,2013-09-09 06:45:00,
2013-09-09 02:46:00,70.6,68.5,30.09,West,268,0.0,0.0,93,0.00,CLR,,0.00,WeatherDisplay:10.37,2013-09-09 06:46:00,
2013-09-09 02:47:00,70.5,68.4,30.09,West,268,0.0,0.0,93,0.00,CLR,,0.00,WeatherDisplay:10.37,2013-09-09 06:47:00,
2013-09-09 02:48:00,70.6,68.5,30.09,West,268,0.0,0.0,93,0.00,CLR,,0.00,WeatherDisplay:10.37,2013-09-09 06:48:00,
2013-09-09 02:49:00,70.6,68.5,30.09,West,268,0.0,0.0,93,0.00,CLR,,0.00,WeatherDisplay:10.37,2013-09-09 06:49:00,
2013-09-09 02:50:00,70.5,68.4,30.09,West,268,0.0,0.0,93,0.00,CLR,,0.00,WeatherDisplay:10.37,2013-09-09 06:50:00,
2013-09-09 02:51:00,70.8,68.7,30.09,West,268,0.0,0.0,93,0.00,CLR,,0.00,WeatherDisplay:10.37,2013-09-09 06:51:00,
2013-09-09 02:52:00,70.4,68.3,30.09,West,268,0.0,0.0,93,0.00,CLR,,0.00,WeatherDisplay:10.37,2013-09-09 06:52:00,
2013-09-09 02:53:00,70.1,68.0,30.09,West,268,0.0,0.0,93,0.00,CLR,,0.00,WeatherDisplay:10.37,2013-09-09 06:53:00,
2013-09-09 02:55:00,70.5,68.4,30.09,West,268,0.0,0.0,93,0.00,CLR,,0.00,WeatherDisplay:10.37,2013-09-09 06:55:00,
2013-09-09 02:56:00,70.5,68.4,30.09,West,268,0.0,0.0,93,0.00,CLR,,0.00,WeatherDisplay:10.37,2013-09-09 06:56:00,
2013-09-09 02:57:00,70.4,68.3,30.09,West,268,0.0,0.0,93,0.00,CLR,,0.00,WeatherDisplay:10.37,2013-09-09 06:57:00,
2013-09-09 02:59:00,70.5,68.4,30.09,West,268,0.0,0.0,93,0.00,CLR,,0.00,WeatherDisplay:10.37,2013-09-09 06:59:00,
2013-09-09 03:00:00,70.5,68.4,30.09,West,268,0.0,0.0,93,0.00,CLR,,0.00,WeatherDisplay:10.37,2013-09-09 07:00:00,
2013-09-09 03:01:00,70.2,68.1,30.09,West,268,0.0,0.0,93,0.00,CLR,,0.00,WeatherDisplay:10.37,2013-09-09 07:01:00,
2013-09-09 03:02:00,70.4,68.3,30.09,West,268,0.0,0.0,93,0.00,CLR,,0.00,WeatherDisplay:10.37,2013-09-09 07:02:00,
2013-09-09 03:03:00,70.4,68.6,30.09,West,268,0.0,0.0,94,0.00,CLR,,0.00,WeatherDisplay:10.37,2013-09-09 07:03:00,
2013-09-09 03:04:00,70.2,68.4,30.09,West,268,0.0,0.0,94,0.00,CLR,,0.00,WeatherDisplay:10.37,2013-09-09 07:04:00,
2013-09-09 03:05:00,70.0,68.2,30.09,West,268,0.0,0.0,94,0.00,CLR,,0.00,WeatherDisplay:10.37,2013-09-09 07:05:00,
2013-09-09 03:06:00,70.2,68.4,30.09,West,268,0.0,0.0,94,0.00,CLR,,0.00,WeatherDisplay:10.37,2013-09-09 07:06:00,
2013-09-09 03:07:00,70.4,68.6,30.09,West,268,0.0,0.0,94,0.00,CLR,,0.00,WeatherDisplay:10.37,2013-09-09 07:07:00,
2013-09-09 03:08:00,70.1,68.3,30.09,West,268,0.0,0.0,94,0.00,CLR,,0.00,WeatherDisplay:10.37,2013-09-09 07:08:00,
2013-09-09 03:09:00,70.1,68.3,30.09,West,268,0.0,0.0,94,0.00,CLR,,0.00,WeatherDisplay:10.37,2013-09-09 07:09:00,
2013-09-09 03:10:00,70.5,68.7,30.09,West,268,0.0,0.0,94,0.00,CLR,,0.00,WeatherDisplay:10.37,2013-09-09 07:10:00,
2013-09-09 03:11:00,70.1,68.3,30.09,West,268,0.0,0.0,94,0.00,CLR,,0.00,WeatherDisplay:10.37,2013-09-09 07:11:00,
2013-09-09 03:13:00,70.2,68.4,30.09,West,268,0.0,0.0,94,0.00,CLR,,0.00,WeatherDisplay:10.37,2013-09-09 07:13:00,
2013-09-09 03:14:00,70.1,68.3,30.09,West,268,0.0,0.0,94,0.00,CLR,,0.00,WeatherDisplay:10.37,2013-09-09 07:14:00,
2013-09-09 03:15:00,70.0,68.2,30.09,West,268,0.0,0.0,94,0.00,CLR,,0.00,WeatherDisplay:10.37,2013-09-09 07:15:00,
2013-09-09 03:17:00,70.0,68.2,30.09,West,268,0.0,0.0,94,0.00,CLR,,0.00,WeatherDisplay:10.37,2013-09-09 07:17:00,
2013-09-09 03:18:00,70.2,68.4,30.09,West,268,0.0,0.0,94,0.00,CLR,,0.00,WeatherDisplay:10.37,2013-09-09 07:18:00,
2013-09-09 03:19:00,69.9,68.1,30.09,West,268,0.0,0.0,94,0.00,CLR,,0.00,WeatherDisplay:10.37,2013-09-09 07:19:00,
2013-09-09 03:20:00,69.7,67.9,30.09,West,268,0.0,0.0,94,0.00,CLR,,0.00,WeatherDisplay:10.37,2013-09-09 07:20:00,
2013-09-09 03:22:00,70.1,68.3,30.09,West,268,0.0,0.0,94,0.00,CLR,,0.00,WeatherDisplay:10.37,2013-09-09 07:22:00,
2013-09-09 03:23:00,70.2,68.4,30.09,West,268,0.0,0.0,94,0.00,CLR,,0.00,WeatherDisplay:10.37,2013-09-09 07:23:00,
2013-09-09 03:24:00,69.6,67.8,30.09,West,268,0.0,0.0,94,0.00,CLR,,0.00,WeatherDisplay:10.37,2013-09-09 07:24:00,
2013-09-09 03:25:00,69.9,68.1,30.09,West,268,0.0,0.0,94,0.00,CLR,,0.00,WeatherDisplay:10.37,2013-09-09 07:25:00,
2013-09-09 03:27:00,70.0,68.2,30.09,West,268,0.0,0.0,94,0.00,CLR,,0.00,WeatherDisplay:10.37,2013-09-09 07:27:00,
2013-09-09 03:29:00,69.8,68.3,30.09,West,268,0.0,0.0,95,0.00,CLR,,0.00,WeatherDisplay:10.37,2013-09-09 07:29:00,
2013-09-09 03:30:00,69.9,68.4,30.09,West,268,0.0,0.0,95,0.00,CLR,,0.00,WeatherDisplay:10.37,2013-09-09 07:30:00,
2013-09-09 03:31:00,69.6,68.1,30.09,West,268,0.0,0.0,95,0.00,CLR,,0.00,WeatherDisplay:10.37,2013-09-09 07:31:00,
2013-09-09 03:32:00,69.7,68.2,30.09,West,268,0.0,0.0,95,0.00,CLR,,0.00,WeatherDisplay:10.37,2013-09-09 07:32:00,
2013-09-09 03:34:00,69.6,68.1,30.09,West,268,0.0,0.0,95,0.00,CLR,,0.00,WeatherDisplay:10.37,2013-09-09 07:34:00,
2013-09-09 03:35:00,70.0,68.5,30.09,West,268,0.0,0.0,95,0.00,CLR,,0.00,WeatherDisplay:10.37,2013-09-09 07:35:00,
2013-09-09 03:36:00,69.6,68.1,30.09,West,268,0.0,0.0,95,0.00,CLR,,0.00,WeatherDisplay:10.37,2013-09-09 07:36:00,
2013-09-09 03:37:00,69.7,68.2,30.09,West,268,0.0,0.0,95,0.00,CLR,,0.00,WeatherDisplay:10.37,2013-09-09 07:37:00,
2013-09-09 03:39:00,69.6,68.1,30.09,West,268,0.0,0.0,95,0.00,CLR,,0.00,WeatherDisplay:10.37,2013-09-09 07:39:00,
2013-09-09 03:40:00,69.5,68.0,30.09,West,268,0.0,0.0,95,0.00,CLR,,0.00,WeatherDisplay:10.37,2013-09-09 07:40:00,
2013-09-09 03:41:00,69.5,68.0,30.09,West,268,0.0,0.0,95,0.00,CLR,,0.00,WeatherDisplay:10.37,2013-09-09 07:41:00,
2013-09-09 03:42:00,69.9,68.4,30.09,West,268,0.0,0.0,95,0.00,CLR,,0.00,WeatherDisplay:10.37,2013-09-09 07:42:00,
2013-09-09 03:43:00,69.4,67.9,30.09,West,268,0.0,0.0,95,0.00,CLR,,0.00,WeatherDisplay:10.37,2013-09-09 07:43:00,
2013-09-09 03:45:00,69.4,67.9,30.09,West,268,0.0,0.0,95,0.00,CLR,,0.00,WeatherDisplay:10.37,2013-09-09 07:45:00,
2013-09-09 03:46:00,69.5,68.3,30.09,West,268,0.0,0.0,96,0.00,CLR,,0.00,WeatherDisplay:10.37,2013-09-09 07:46:00,
2013-09-09 03:47:00,69.5,68.3,30.09,West,268,0.0,0.0,96,0.00,CLR,,0.00,WeatherDisplay:10.37,2013-09-09 07:47:00,
2013-09-09 03:48:00,69.4,68.2,30.09,West,268,0.0,0.0,96,0.00,CLR,,0.00,WeatherDisplay:10.37,2013-09-09 07:48:00,
2013-09-09 03:49:00,69.2,68.0,30.09,West,268,0.0,0.0,96,0.00,CLR,,0.00,WeatherDisplay:10.37,2013-09-09 07:49:00,
2013-09-09 03:50:00,69.2,68.0,30.09,West,268,0.0,0.0,96,0.00,CLR,,0.00,WeatherDisplay:10.37,2013-09-09 07:50:00,
2013-09-09 03:51:00,69.6,68.4,30.09,West,268,0.0,0.0,96,0.00,CLR,,0.00,WeatherDisplay:10.37,2013-09-09 07:51:00,
2013-09-09 03:52:00,69.5,68.3,30.09,West,268,0.0,0.0,96,0.00,CLR,,0.00,WeatherDisplay:10.37,2013-09-09 07:52:00,
2013-09-09 03:53:00,69.4,68.2,30.09,West,268,0.0,0.0,96,0.00,CLR,,0.00,WeatherDisplay:10.37,2013-09-09 07:53:00,
2013-09-09 03:55:00,69.3,68.1,30.09,West,268,0.0,0.0,96,0.00,CLR,,0.00,WeatherDisplay:10.37,2013-09-09 07:55:00,
2013-09-09 03:56:00,69.4,68.2,30.09,West,268,0.0,0.0,96,0.00,CLR,,0.00,WeatherDisplay:10.37,2013-09-09 07:56:00,
2013-09-09 03:57:00,69.5,68.3,30.09,West,268,0.0,0.0,96,0.00,CLR,,0.00,WeatherDisplay:10.37,2013-09-09 07:57:00,
2013-09-09 03:58:00,69.1,67.9,30.09,West,268,0.0,0.0,96,0.00,CLR,,0.00,WeatherDisplay:10.37,2013-09-09 07:58:00,
2013-09-09 04:00:00,69.6,68.4,30.10,West,268,0.0,0.0,96,0.00,CLR,,0.00,WeatherDisplay:10.37,2013-09-09 08:00:00,
2013-09-09 04:01:00,69.6,68.4,30.10,West,268,0.0,0.0,96,0.00,CLR,,0.00,WeatherDisplay:10.37,2013-09-09 08:01:00,
2013-09-09 04:02:00,69.4,68.2,30.10,West,268,0.0,0.0,96,0.00,CLR,,0.00,WeatherDisplay:10.37,2013-09-09 08:02:00,
2013-09-09 04:04:00,69.5,68.3,30.10,West,268,0.0,0.0,96,0.00,CLR,,0.00,WeatherDisplay:10.37,2013-09-09 08:04:00,
2013-09-09 04:06:00,69.4,68.2,30.10,West,268,0.0,0.0,96,0.00,CLR,,0.00,WeatherDisplay:10.37,2013-09-09 08:06:00,
2013-09-09 04:07:00,69.4,68.2,30.10,West,268,0.0,0.0,96,0.00,CLR,,0.00,WeatherDisplay:10.37,2013-09-09 08:07:00,
2013-09-09 04:09:00,69.4,68.2,30.10,West,268,0.0,0.0,96,0.00,CLR,,0.00,WeatherDisplay:10.37,2013-09-09 08:09:00,
2013-09-09 04:11:00,69.3,68.1,30.10,West,268,0.0,0.0,96,0.00,CLR,,0.00,WeatherDisplay:10.37,2013-09-09 08:11:00,
2013-09-09 04:12:00,69.3,68.1,30.10,West,268,0.0,0.0,96,0.00,CLR,,0.00,WeatherDisplay:10.37,2013-09-09 08:12:00,
2013-09-09 04:14:00,69.5,68.3,30.10,West,268,0.0,0.0,96,0.00,CLR,,0.00,WeatherDisplay:10.37,2013-09-09 08:14:00,
2013-09-09 04:16:00,69.3,68.1,30.10,West,268,0.0,0.0,96,0.00,CLR,,0.00,WeatherDisplay:10.37,2013-09-09 08:16:00,
2013-09-09 04:17:00,69.6,68.4,30.10,West,268,0.0,0.0,96,0.00,CLR,,0.00,WeatherDisplay:10.37,2013-09-09 08:17:00,
2013-09-09 04:18:00,69.4,68.2,30.10,West,268,0.0,0.0,96,0.00,CLR,,0.00,WeatherDisplay:10.37,2013-09-09 08:18:00,
2013-09-09 04:20:00,69.4,68.2,30.10,West,268,0.0,0.0,96,0.00,CLR,,0.00,WeatherDisplay:10.37,2013-09-09 08:20:00,
2013-09-09 04:21:00,69.1,67.9,30.10,West,268,0.0,0.0,96,0.00,CLR,,0.00,WeatherDisplay:10.37,2013-09-09 08:21:00,
2013-09-09 04:22:00,69.1,67.9,30.10,West,268,0.0,0.0,96,0.00,CLR,,0.00,WeatherDisplay:10.37,2013-09-09 08:22:00,
2013-09-09 04:23:00,69.4,68.2,30.10,West,268,0.0,0.0,96,0.00,CLR,,0.00,WeatherDisplay:10.37,2013-09-09 08:23:00,
2013-09-09 04:24:00,69.4,68.2,30.10,West,268,0.0,0.0,96,0.00,CLR,,0.00,WeatherDisplay:10.37,2013-09-09 08:24:00,
2013-09-09 04:25:00,69.4,67.9,30.10,West,268,0.0,0.0,95,0.00,CLR,,0.00,WeatherDisplay:10.37,2013-09-09 08:25:00,
2013-09-09 04:26:00,69.0,67.5,30.11,West,268,0.0,0.0,95,0.00,CLR,,0.00,WeatherDisplay:10.37,2013-09-09 08:26:00,
2013-09-09 04:27:00,69.4,67.9,30.11,West,268,0.0,0.0,95,0.00,CLR,,0.00,WeatherDisplay:10.37,2013-09-09 08:27:00,
2013-09-09 04:28:00,69.4,67.9,30.11,West,268,0.0,0.0,95,0.00,CLR,,0.00,WeatherDisplay:10.37,2013-09-09 08:28:00,
2013-09-09 04:29:00,69.4,67.9,30.11,West,268,0.0,0.0,95,0.00,CLR,,0.00,WeatherDisplay:10.37,2013-09-09 08:29:00,
2013-09-09 04:30:00,69.4,67.9,30.11,West,268,0.0,0.0,95,0.00,CLR,,0.00,WeatherDisplay:10.37,2013-09-09 08:30:00,
2013-09-09 04:31:00,69.0,67.5,30.11,West,268,0.0,0.0,95,0.00,CLR,,0.00,WeatherDisplay:10.37,2013-09-09 08:31:00,
2013-09-09 04:32:00,69.0,67.5,30.11,West,268,0.0,0.0,95,0.00,CLR,,0.00,WeatherDisplay:10.37,2013-09-09 08:32:00,
2013-09-09 04:33:00,69.2,67.7,30.11,West,268,0.0,0.0,95,0.00,CLR,,0.00,WeatherDisplay:10.37,2013-09-09 08:33:00,
2013-09-09 04:34:00,69.4,67.9,30.11,West,268,0.0,0.0,95,0.00,CLR,,0.00,WeatherDisplay:10.37,2013-09-09 08:34:00,
2013-09-09 04:36:00,69.1,67.6,30.11,West,268,0.0,0.0,95,0.00,CLR,,0.00,WeatherDisplay:10.37,2013-09-09 08:36:00,
2013-09-09 04:37:00,69.0,67.5,30.11,West,268,0.0,0.0,95,0.00,CLR,,0.00,WeatherDisplay:10.37,2013-09-09 08:37:00,
2013-09-09 04:38:00,69.0,67.5,30.11,West,268,0.0,0.0,95,0.00,CLR,,0.00,WeatherDisplay:10.37,2013-09-09 08:38:00,
2013-09-09 04:39:00,68.9,67.4,30.11,West,268,0.0,0.0,95,0.00,CLR,,0.00,WeatherDisplay:10.37,2013-09-09 08:39:00,
2013-09-09 04:40:00,69.1,67.6,30.11,West,268,0.0,0.0,95,0.00,CLR,,0.00,WeatherDisplay:10.37,2013-09-09 08:40:00,
2013-09-09 04:41:00,68.9,67.4,30.11,West,268,0.0,0.0,95,0.00,CLR,,0.00,WeatherDisplay:10.37,2013-09-09 08:41:00,
2013-09-09 04:42:00,68.7,67.2,30.11,West,268,0.0,0.0,95,0.00,CLR,,0.00,WeatherDisplay:10.37,2013-09-09 08:42:00,
2013-09-09 04:43:00,68.7,67.2,30.11,West,268,0.0,0.0,95,0.00,CLR,,0.00,WeatherDisplay:10.37,2013-09-09 08:43:00,
2013-09-09 04:45:00,68.9,67.4,30.11,West,268,0.0,0.0,95,0.00,CLR,,0.00,WeatherDisplay:10.37,2013-09-09 08:45:00,
2013-09-09 04:46:00,69.2,67.7,30.11,West,268,0.0,0.0,95,0.00,CLR,,0.00,WeatherDisplay:10.37,2013-09-09 08:46:00,
2013-09-09 04:47:00,68.5,67.0,30.11,West,268,0.0,0.0,95,0.00,CLR,,0.00,WeatherDisplay:10.37,2013-09-09 08:47:00,
2013-09-09 04:48:00,68.8,67.3,30.11,West,268,0.0,0.0,95,0.00,CLR,,0.00,WeatherDisplay:10.37,2013-09-09 08:48:00,
2013-09-09 04:52:00,68.5,67.0,30.11,West,268,0.0,0.0,95,0.00,CLR,,0.00,WeatherDisplay:10.37,2013-09-09 08:52:00,
2013-09-09 04:53:00,68.9,67.4,30.11,West,268,0.0,0.0,95,0.00,CLR,,0.00,WeatherDisplay:10.37,2013-09-09 08:53:00,
2013-09-09 04:57:00,68.8,67.3,30.11,West,268,0.0,0.0,95,0.00,CLR,,0.00,WeatherDisplay:10.37,2013-09-09 08:57:00,
2013-09-09 04:58:00,68.5,67.0,30.12,West,268,0.0,0.0,95,0.00,CLR,,0.00,WeatherDisplay:10.37,2013-09-09 08:58:00,
2013-09-09 05:02:00,68.6,67.1,30.12,West,268,0.0,0.0,95,0.00,CLR,,0.00,WeatherDisplay:10.37,2013-09-09 09:02:00,
2013-09-09 05:03:00,68.8,67.3,30.12,West,268,0.0,0.0,95,0.00,CLR,,0.00,WeatherDisplay:10.37,2013-09-09 09:03:00,
2013-09-09 05:04:00,68.7,67.2,30.12,West,268,0.0,0.0,95,0.00,CLR,,0.00,WeatherDisplay:10.37,2013-09-09 09:04:00,
2013-09-09 05:07:00,68.6,67.1,30.12,West,268,0.0,0.0,95,0.00,CLR,,0.00,WeatherDisplay:10.37,2013-09-09 09:07:00,
2013-09-09 05:08:00,68.4,66.9,30.12,West,268,0.0,0.0,95,0.00,CLR,,0.00,WeatherDisplay:10.37,2013-09-09 09:08:00,
2013-09-09 05:09:00,68.4,66.9,30.12,West,268,0.0,0.0,95,0.00,CLR,,0.00,WeatherDisplay:10.37,2013-09-09 09:09:00,
2013-09-09 05:12:00,68.4,66.9,30.12,West,268,0.0,0.0,95,0.00,CLR,,0.00,WeatherDisplay:10.37,2013-09-09 09:12:00,
2013-09-09 05:13:00,68.4,66.9,30.12,West,268,0.0,0.0,95,0.00,CLR,,0.00,WeatherDisplay:10.37,2013-09-09 09:13:00,
2013-09-09 05:14:00,68.4,66.9,30.12,West,268,0.0,0.0,95,0.00,CLR,,0.00,WeatherDisplay:10.37,2013-09-09 09:14:00,
2013-09-09 05:15:00,68.4,66.9,30.12,West,268,0.0,0.0,95,0.00,CLR,,0.00,WeatherDisplay:10.37,2013-09-09 09:15:00,
2013-09-09 05:17:00,68.4,66.9,30.13,West,268,0.0,0.0,95,0.00,CLR,,0.00,WeatherDisplay:10.37,2013-09-09 09:17:00,
2013-09-09 05:18:00,68.4,66.9,30.13,West,268,0.0,0.0,95,0.00,CLR,,0.00,WeatherDisplay:10.37,2013-09-09 09:18:00,
2013-09-09 05:19:00,68.2,66.7,30.13,West,268,0.0,0.0,95,0.00,CLR,,0.00,WeatherDisplay:10.37,2013-09-09 09:19:00,
2013-09-09 05:20:00,68.2,66.7,30.13,West,268,0.0,0.0,95,0.00,CLR,,0.00,WeatherDisplay:10.37,2013-09-09 09:20:00,
2013-09-09 05:22:00,68.2,66.7,30.13,West,268,0.0,0.0,95,0.00,CLR,,0.00,WeatherDisplay:10.37,2013-09-09 09:22:00,
2013-09-09 05:23:00,68.4,66.9,30.13,West,268,0.0,0.0,95,0.00,CLR,,0.00,WeatherDisplay:10.37,2013-09-09 09:23:00,
2013-09-09 05:24:00,67.9,66.4,30.13,West,268,0.0,0.0,95,0.00,CLR,,0.00,WeatherDisplay:10.37,2013-09-09 09:24:00,
2013-09-09 05:25:00,68.2,66.7,30.13,West,268,0.0,0.0,95,0.00,CLR,,0.00,WeatherDisplay:10.37,2013-09-09 09:25:00,
2013-09-09 05:27:00,68.2,66.4,30.13,West,268,0.0,0.0,94,0.00,CLR,,0.00,WeatherDisplay:10.37,2013-09-09 09:27:00,
2013-09-09 05:29:00,67.9,66.1,30.13,West,268,0.0,0.0,94,0.00,CLR,,0.00,WeatherDisplay:10.37,2013-09-09 09:29:00,
2013-09-09 05:30:00,68.1,66.6,30.13,West,268,0.0,0.0,95,0.00,CLR,,0.00,WeatherDisplay:10.37,2013-09-09 09:30:00,
2013-09-09 05:32:00,68.2,66.7,30.13,West,268,0.0,0.0,95,0.00,CLR,,0.00,WeatherDisplay:10.37,2013-09-09 09:32:00,
2013-09-09 05:34:00,68.2,66.7,30.13,West,268,0.0,0.0,95,0.00,CLR,,0.00,WeatherDisplay:10.37,2013-09-09 09:34:00,
2013-09-09 05:35:00,68.1,66.6,30.13,West,268,0.0,0.0,95,0.00,CLR,,0.00,WeatherDisplay:10.37,2013-09-09 09:35:00,
2013-09-09 05:37:00,68.3,66.8,30.13,West,268,0.0,0.0,95,0.00,CLR,,0.00,WeatherDisplay:10.37,2013-09-09 09:37:00,
2013-09-09 05:39:00,68.0,66.5,30.13,West,268,0.0,0.0,95,0.00,CLR,,0.00,WeatherDisplay:10.37,2013-09-09 09:39:00,
2013-09-09 05:41:00,67.7,66.2,30.13,West,268,0.0,0.0,95,0.00,CLR,,0.00,WeatherDisplay:10.37,2013-09-09 09:41:00,
2013-09-09 05:43:00,67.7,66.2,30.13,West,268,0.0,0.0,95,0.00,CLR,,0.00,WeatherDisplay:10.37,2013-09-09 09:43:00,
2013-09-09 05:44:00,67.9,66.4,30.13,West,268,0.0,0.0,95,0.00,CLR,,0.00,WeatherDisplay:10.37,2013-09-09 09:44:00,
2013-09-09 05:45:00,67.8,66.3,30.13,West,268,0.0,0.0,95,0.00,CLR,,0.00,WeatherDisplay:10.37,2013-09-09 09:45:00,
2013-09-09 05:46:00,67.8,66.3,30.13,West,268,0.0,0.0,95,0.00,CLR,,0.00,WeatherDisplay:10.37,2013-09-09 09:46:00,
2013-09-09 05:48:00,67.8,66.3,30.14,West,268,0.0,0.0,95,0.00,CLR,,0.00,WeatherDisplay:10.37,2013-09-09 09:48:00,
2013-09-09 05:49:00,67.8,66.3,30.14,West,268,0.0,0.0,95,0.00,CLR,,0.00,WeatherDisplay:10.37,2013-09-09 09:49:00,
2013-09-09 05:50:00,67.8,66.3,30.14,West,268,0.0,0.0,95,0.00,CLR,,0.00,WeatherDisplay:10.37,2013-09-09 09:50:00,
2013-09-09 05:52:00,67.8,66.3,30.14,West,268,0.0,0.0,95,0.00,CLR,,0.00,WeatherDisplay:10.37,2013-09-09 09:52:00,
2013-09-09 05:53:00,67.9,66.4,30.14,West,268,0.0,0.0,95,0.00,CLR,,0.00,WeatherDisplay:10.37,2013-09-09 09:53:00,
2013-09-09 05:54:00,67.6,66.4,30.14,West,268,0.0,0.0,96,0.00,CLR,,0.00,WeatherDisplay:10.37,2013-09-09 09:54:00,
2013-09-09 05:55:00,68.0,66.8,30.14,West,268,0.0,0.0,96,0.00,CLR,,0.00,WeatherDisplay:10.37,2013-09-09 09:55:00,
2013-09-09 05:58:00,68.0,66.5,30.14,West,268,0.0,0.0,95,0.00,CLR,,0.00,WeatherDisplay:10.37,2013-09-09 09:58:00,
2013-09-09 05:59:00,67.9,66.4,30.14,West,268,0.0,0.0,95,0.00,CLR,,0.00,WeatherDisplay:10.37,2013-09-09 09:59:00,
2013-09-09 06:00:00,67.8,66.3,30.14,West,268,0.0,0.0,95,0.00,CLR,,0.00,WeatherDisplay:10.37,2013-09-09 10:00:00,
2013-09-09 06:01:00,67.8,66.6,30.14,West,268,0.0,0.0,96,0.00,CLR,,0.00,WeatherDisplay:10.37,2013-09-09 10:01:00,
2013-09-09 06:03:00,67.9,66.7,30.14,West,268,0.0,0.0,96,0.00,CLR,,0.00,WeatherDisplay:10.37,2013-09-09 10:03:00,
2013-09-09 06:04:00,67.5,66.3,30.14,West,268,0.0,0.0,96,0.00,CLR,,0.00,WeatherDisplay:10.37,2013-09-09 10:04:00,
2013-09-09 06:08:00,67.9,66.7,30.14,West,268,0.0,0.0,96,0.00,CLR,,0.00,WeatherDisplay:10.37,2013-09-09 10:08:00,
2013-09-09 06:09:00,67.8,66.6,30.14,West,268,0.0,0.0,96,0.00,CLR,,0.00,WeatherDisplay:10.37,2013-09-09 10:09:00,
2013-09-09 06:10:00,67.6,66.4,30.14,West,268,0.0,0.0,96,0.00,CLR,,0.00,WeatherDisplay:10.37,2013-09-09 10:10:00,
2013-09-09 06:13:00,67.9,66.4,30.14,West,268,0.0,0.0,95,0.00,CLR,,0.00,WeatherDisplay:10.37,2013-09-09 10:13:00,
2013-09-09 06:14:00,67.4,66.2,30.14,West,268,0.0,0.0,96,0.00,CLR,,0.00,WeatherDisplay:10.37,2013-09-09 10:14:00,
2013-09-09 06:16:00,67.9,66.7,30.14,West,268,0.0,0.0,96,0.00,CLR,,0.00,WeatherDisplay:10.37,2013-09-09 10:16:00,
2013-09-09 06:19:00,67.4,66.2,30.14,West,268,0.0,0.0,96,0.00,CLR,,0.00,WeatherDisplay:10.37,2013-09-09 10:19:00,
2013-09-09 06:21:00,67.7,66.5,30.14,West,268,0.0,0.0,96,0.00,CLR,,0.00,WeatherDisplay:10.37,2013-09-09 10:21:00,
2013-09-09 06:24:00,67.4,66.2,30.14,West,268,0.0,0.0,96,0.00,CLR,,0.00,WeatherDisplay:10.37,2013-09-09 10:24:00,
2013-09-09 06:25:00,67.3,66.1,30.14,West,268,0.0,0.0,96,0.00,CLR,,0.00,WeatherDisplay:10.37,2013-09-09 10:25:00,
2013-09-09 06:26:00,67.4,66.5,30.14,West,268,0.0,0.0,97,0.00,CLR,,0.00,WeatherDisplay:10.37,2013-09-09 10:26:00,
2013-09-09 06:29:00,67.7,66.5,30.14,West,268,0.0,0.0,96,0.00,CLR,,0.00,WeatherDisplay:10.37,2013-09-09 10:29:00,
2013-09-09 06:30:00,67.2,66.0,30.14,West,268,0.0,0.0,96,0.00,CLR,,0.00,WeatherDisplay:10.37,2013-09-09 10:30:00,
2013-09-09 06:32:00,67.7,66.5,30.14,West,268,0.0,0.0,96,0.00,CLR,,0.00,WeatherDisplay:10.37,2013-09-09 10:32:00,
2013-09-09 06:34:00,67.3,66.1,30.15,West,268,0.0,0.0,96,0.00,CLR,,0.00,WeatherDisplay:10.37,2013-09-09 10:34:00,
2013-09-09 06:35:00,67.4,66.2,30.15,West,268,0.0,0.0,96,0.00,CLR,,0.00,WeatherDisplay:10.37,2013-09-09 10:35:00,
2013-09-09 06:36:00,67.3,66.1,30.15,West,268,0.0,0.0,96,0.00,CLR,,0.00,WeatherDisplay:10.37,2013-09-09 10:36:00,
2013-09-09 06:38:00,67.6,66.4,30.15,West,268,0.0,0.0,96,0.00,CLR,,0.00,WeatherDisplay:10.37,2013-09-09 10:38:00,
2013-09-09 06:39:00,67.3,66.1,30.15,West,268,0.0,0.0,96,0.00,CLR,,0.00,WeatherDisplay:10.37,2013-09-09 10:39:00,
2013-09-09 06:40:00,67.4,66.2,30.15,West,268,0.0,0.0,96,0.00,CLR,,0.00,WeatherDisplay:10.37,2013-09-09 10:40:00,
2013-09-09 06:41:00,67.3,66.1,30.15,West,268,0.0,0.0,96,0.00,CLR,,0.00,WeatherDisplay:10.37,2013-09-09 10:41:00,
2013-09-09 06:43:00,67.4,66.2,30.15,West,268,0.0,0.0,96,0.00,CLR,,0.00,WeatherDisplay:10.37,2013-09-09 10:43:00,
2013-09-09 06:44:00,67.7,66.5,30.15,West,268,0.0,0.0,96,0.00,CLR,,0.00,WeatherDisplay:10.37,2013-09-09 10:44:00,
2013-09-09 06:45:00,67.4,66.2,30.15,West,268,0.0,0.0,96,0.00,CLR,,0.00,WeatherDisplay:10.37,2013-09-09 10:45:00,
2013-09-09 06:47:00,67.2,66.3,30.15,West,268,0.0,0.0,97,0.00,CLR,,0.00,WeatherDisplay:10.37,2013-09-09 10:47:00,
2013-09-09 06:49:00,67.2,66.3,30.15,West,268,0.0,0.0,97,0.00,CLR,,0.00,WeatherDisplay:10.37,2013-09-09 10:49:00,
2013-09-09 06:50:00,67.2,66.3,30.15,West,268,0.0,0.0,97,0.00,CLR,,0.00,WeatherDisplay:10.37,2013-09-09 10:50:00,
2013-09-09 06:52:00,67.5,66.6,30.16,West,268,0.0,0.0,97,0.00,CLR,,0.00,WeatherDisplay:10.37,2013-09-09 10:52:00,
2013-09-09 06:54:00,67.6,66.7,30.16,West,268,0.0,0.0,97,0.00,CLR,,0.00,WeatherDisplay:10.37,2013-09-09 10:54:00,
2013-09-09 06:55:00,67.2,66.3,30.16,West,268,0.0,0.0,97,0.00,CLR,,0.00,WeatherDisplay:10.37,2013-09-09 10:55:00,
2013-09-09 06:57:00,67.6,66.7,30.16,West,268,0.0,0.0,97,0.00,CLR,,0.00,WeatherDisplay:10.37,2013-09-09 10:57:00,
2013-09-09 07:00:00,67.7,66.8,30.16,West,268,0.0,0.0,97,0.00,CLR,,0.00,WeatherDisplay:10.37,2013-09-09 11:00:00,
2013-09-09 07:02:00,67.3,66.4,30.16,West,268,0.0,0.0,97,0.00,CLR,,0.00,WeatherDisplay:10.37,2013-09-09 11:02:00,
2013-09-09 07:03:00,67.7,66.8,30.16,West,268,0.0,0.0,97,0.00,CLR,,0.00,WeatherDisplay:10.37,2013-09-09 11:03:00,
2013-09-09 07:05:00,67.4,66.5,30.16,West,268,0.0,0.0,97,0.00,CLR,,0.00,WeatherDisplay:10.37,2013-09-09 11:05:00,
2013-09-09 07:07:00,67.7,66.8,30.16,West,268,0.0,0.0,97,0.00,CLR,,0.00,WeatherDisplay:10.37,2013-09-09 11:07:00,
2013-09-09 07:08:00,67.8,66.9,30.16,West,268,0.0,0.0,97,0.00,CLR,,0.00,WeatherDisplay:10.37,2013-09-09 11:08:00,
2013-09-09 07:10:00,67.8,66.9,30.16,West,268,0.0,0.0,97,0.00,CLR,,0.00,WeatherDisplay:10.37,2013-09-09 11:10:00,
2013-09-09 07:12:00,67.7,66.8,30.16,West,268,0.0,0.0,97,0.00,CLR,,0.00,WeatherDisplay:10.37,2013-09-09 11:12:00,
2013-09-09 07:13:00,68.0,67.1,30.16,West,268,0.0,0.0,97,0.00,CLR,,0.00,WeatherDisplay:10.37,2013-09-09 11:13:00,
2013-09-09 07:14:00,67.9,67.3,30.16,West,268,0.0,0.0,98,0.00,CLR,,0.00,WeatherDisplay:10.37,2013-09-09 11:14:00,
2013-09-09 07:15:00,68.0,67.4,30.16,West,268,0.0,0.0,98,0.00,CLR,,0.00,WeatherDisplay:10.37,2013-09-09 11:15:00,
2013-09-09 07:17:00,68.1,67.5,30.16,West,268,0.0,0.0,98,0.00,CLR,,0.00,WeatherDisplay:10.37,2013-09-09 11:17:00,
2013-09-09 07:19:00,67.9,67.3,30.17,West,268,0.0,0.0,98,0.00,CLR,,0.00,WeatherDisplay:10.37,2013-09-09 11:19:00,
2013-09-09 07:20:00,67.8,67.2,30.17,West,268,0.0,0.0,98,0.00,CLR,,0.00,WeatherDisplay:10.37,2013-09-09 11:20:00,
2013-09-09 07:22:00,68.1,67.5,30.17,West,268,0.0,0.0,98,0.00,CLR,,0.00,WeatherDisplay:10.37,2013-09-09 11:22:00,
2013-09-09 07:24:00,68.2,67.6,30.17,West,268,0.0,0.0,98,0.00,CLR,,0.00,WeatherDisplay:10.37,2013-09-09 11:24:00,
2013-09-09 07:25:00,68.0,67.4,30.17,West,268,0.0,0.0,98,0.00,CLR,,0.00,WeatherDisplay:10.37,2013-09-09 11:25:00,
2013-09-09 07:26:00,68.3,67.7,30.17,West,268,0.0,0.0,98,0.00,CLR,,0.00,WeatherDisplay:10.37,2013-09-09 11:26:00,
2013-09-09 07:27:00,68.3,67.7,30.17,West,268,0.0,0.0,98,0.00,CLR,,0.00,WeatherDisplay:10.37,2013-09-09 11:27:00,
2013-09-09 07:30:00,68.3,67.7,30.17,West,268,0.0,0.0,98,0.00,CLR,,0.00,WeatherDisplay:10.37,2013-09-09 11:30:00,
2013-09-09 07:31:00,68.4,67.8,30.17,West,268,0.0,0.0,98,0.00,CLR,,0.00,WeatherDisplay:10.37,2013-09-09 11:31:00,
2013-09-09 07:32:00,68.2,67.6,30.17,West,268,0.0,0.0,98,0.00,CLR,,0.00,WeatherDisplay:10.37,2013-09-09 11:32:00,
2013-09-09 07:35:00,68.4,67.8,30.17,West,268,0.0,0.0,98,0.00,CLR,,0.00,WeatherDisplay:10.37,2013-09-09 11:35:00,
2013-09-09 07:36:00,68.3,67.7,30.17,West,268,0.0,0.0,98,0.00,CLR,,0.00,WeatherDisplay:10.37,2013-09-09 11:36:00,
2013-09-09 07:37:00,68.5,67.9,30.17,West,268,0.0,0.0,98,0.00,CLR,,0.00,WeatherDisplay:10.37,2013-09-09 11:37:00,
2013-09-09 07:40:00,68.6,68.0,30.17,West,268,0.0,0.0,98,0.00,CLR,,0.00,WeatherDisplay:10.37,2013-09-09 11:40:00,
2013-09-09 07:41:00,68.5,67.9,30.17,West,268,0.0,0.0,98,0.00,CLR,,0.00,WeatherDisplay:10.37,2013-09-09 11:41:00,
2013-09-09 07:42:00,68.7,68.1,30.17,West,268,0.0,0.0,98,0.00,CLR,,0.00,WeatherDisplay:10.37,2013-09-09 11:42:00,
2013-09-09 07:44:00,68.8,68.2,30.18,West,268,0.0,0.0,98,0.00,CLR,,0.00,WeatherDisplay:10.37,2013-09-09 11:44:00,
2013-09-09 07:45:00,68.5,67.9,30.18,West,268,0.0,0.0,98,0.00,CLR,,0.00,WeatherDisplay:10.37,2013-09-09 11:45:00,
2013-09-09 07:47:00,68.8,68.2,30.18,West,268,0.0,0.0,98,0.00,CLR,,0.00,WeatherDisplay:10.37,2013-09-09 11:47:00,
2013-09-09 07:50:00,68.8,68.2,30.18,West,268,0.0,0.0,98,0.00,CLR,,0.00,WeatherDisplay:10.37,2013-09-09 11:50:00,
2013-09-09 07:51:00,68.5,67.9,30.18,West,268,0.0,0.0,98,0.00,CLR,,0.00,WeatherDisplay:10.37,2013-09-09 11:51:00,
2013-09-09 07:52:00,68.5,67.9,30.18,West,268,0.0,0.0,98,0.00,CLR,,0.00,WeatherDisplay:10.37,2013-09-09 11:52:00,
2013-09-09 07:53:00,68.6,68.0,30.18,West,268,0.0,0.0,98,0.00,CLR,,0.00,WeatherDisplay:10.37,2013-09-09 11:53:00,
2013-09-09 07:55:00,69.2,68.6,30.18,West,268,0.0,0.0,98,0.00,CLR,,0.00,WeatherDisplay:10.37,2013-09-09 11:55:00,
2013-09-09 07:57:00,68.9,68.3,30.18,West,268,0.0,0.0,98,0.00,CLR,,0.00,WeatherDisplay:10.37,2013-09-09 11:57:00,
2013-09-09 07:58:00,69.1,68.5,30.18,West,268,0.0,0.0,98,0.00,CLR,,0.00,WeatherDisplay:10.37,2013-09-09 11:58:00,
2013-09-09 08:01:00,68.9,68.3,30.18,West,268,0.0,0.0,98,0.00,CLR,,0.00,WeatherDisplay:10.37,2013-09-09 12:01:00,
2013-09-09 08:02:00,69.0,68.4,30.19,West,268,0.0,0.0,98,0.00,CLR,,0.00,WeatherDisplay:10.37,2013-09-09 12:02:00,
2013-09-09 08:03:00,68.8,68.2,30.19,West,268,0.0,0.0,98,0.00,CLR,,0.00,WeatherDisplay:10.37,2013-09-09 12:03:00,
2013-09-09 08:06:00,69.1,68.5,30.19,West,268,0.0,0.0,98,0.00,CLR,,0.00,WeatherDisplay:10.37,2013-09-09 12:06:00,
2013-09-09 08:07:00,68.8,68.2,30.18,West,268,0.0,0.0,98,0.00,CLR,,0.00,WeatherDisplay:10.37,2013-09-09 12:07:00,
2013-09-09 08:08:00,69.5,68.6,30.18,West,268,0.0,0.0,97,0.00,CLR,,0.00,WeatherDisplay:10.37,2013-09-09 12:08:00,
2013-09-09 08:09:00,69.2,68.3,30.18,West,268,0.0,0.0,97,0.00,CLR,,0.00,WeatherDisplay:10.37,2013-09-09 12:09:00,
2013-09-09 08:11:00,69.2,68.3,30.18,West,268,0.0,0.0,97,0.00,CLR,,0.00,WeatherDisplay:10.37,2013-09-09 12:11:00,
2013-09-09 08:13:00,69.4,68.5,30.18,West,268,0.0,0.0,97,0.00,CLR,,0.00,WeatherDisplay:10.37,2013-09-09 12:13:00,
2013-09-09 08:15:00,69.5,68.6,30.19,West,268,0.0,0.0,97,0.00,CLR,,0.00,WeatherDisplay:10.37,2013-09-09 12:15:00,
2013-09-09 08:16:00,69.4,68.5,30.19,West,268,0.0,0.0,97,0.00,CLR,,0.00,WeatherDisplay:10.37,2013-09-09 12:16:00,
2013-09-09 08:18:00,69.6,68.7,30.19,West,268,0.0,0.0,97,0.00,CLR,,0.00,WeatherDisplay:10.37,2013-09-09 12:18:00,
2013-09-09 08:19:00,69.4,68.5,30.19,West,268,0.0,0.0,97,0.00,CLR,,0.00,WeatherDisplay:10.37,2013-09-09 12:19:00,
2013-09-09 08:21:00,69.3,68.4,30.19,West,268,0.0,0.0,97,0.00,CLR,,0.00,WeatherDisplay:10.37,2013-09-09 12:21:00,
2013-09-09 08:23:00,69.5,68.6,30.19,West,268,0.0,0.0,97,0.00,CLR,,0.00,WeatherDisplay:10.37,2013-09-09 12:23:00,
2013-09-09 08:24:00,69.7,68.8,30.19,West,268,0.0,0.0,97,0.00,CLR,,0.00,WeatherDisplay:10.37,2013-09-09 12:24:00,
2013-09-09 08:25:00,69.6,68.7,30.19,West,268,0.0,0.0,97,0.00,CLR,,0.00,WeatherDisplay:10.37,2013-09-09 12:25:00,
2013-09-09 08:26:00,69.5,68.6,30.19,West,268,0.0,0.0,97,0.00,CLR,,0.00,WeatherDisplay:10.37,2013-09-09 12:26:00,
2013-09-09 08:28:00,69.4,68.5,30.19,East,86,0.5,2.3,97,0.00,CLR,,0.00,WeatherDisplay:10.37,2013-09-09 12:28:00,
2013-09-09 08:29:00,69.5,68.6,30.19,East,86,0.1,2.3,97,0.00,CLR,,0.00,WeatherDisplay:10.37,2013-09-09 12:29:00,
2013-09-09 08:31:00,70.0,69.1,30.19,East,86,0.0,0.0,97,0.00,CLR,,0.00,WeatherDisplay:10.37,2013-09-09 12:31:00,
2013-09-09 08:33:00,69.8,68.9,30.19,East,86,0.0,0.0,97,0.00,CLR,,0.00,WeatherDisplay:10.37,2013-09-09 12:33:00,
2013-09-09 08:34:00,70.1,69.2,30.19,East,86,0.0,0.0,97,0.00,CLR,,0.00,WeatherDisplay:10.37,2013-09-09 12:34:00,
2013-09-09 08:35:00,69.8,68.9,30.19,East,86,0.0,0.0,97,0.00,CLR,,0.00,WeatherDisplay:10.37,2013-09-09 12:35:00,
2013-09-09 08:36:00,69.9,68.7,30.19,East,86,0.0,0.0,96,0.00,CLR,,0.00,WeatherDisplay:10.37,2013-09-09 12:36:00,
2013-09-09 08:38:00,70.1,68.9,30.19,East,86,0.0,0.0,96,0.00,CLR,,0.00,WeatherDisplay:10.37,2013-09-09 12:38:00,
2013-09-09 08:39:00,69.9,68.7,30.19,East,86,0.0,0.0,96,0.00,CLR,,0.00,WeatherDisplay:10.37,2013-09-09 12:39:00,
2013-09-09 08:40:00,70.2,69.0,30.19,East,86,0.0,0.0,96,0.00,CLR,,0.00,WeatherDisplay:10.37,2013-09-09 12:40:00,
2013-09-09 08:41:00,70.5,69.3,30.19,East,82,1.2,0.0,96,0.00,CLR,,0.00,WeatherDisplay:10.37,2013-09-09 12:41:00,
2013-09-09 08:43:00,70.3,69.1,30.19,East,82,0.0,4.6,96,0.00,CLR,,0.00,WeatherDisplay:10.37,2013-09-09 12:43:00,
2013-09-09 08:44:00,70.7,69.5,30.19,East,82,0.0,0.0,96,0.00,CLR,,0.00,WeatherDisplay:10.37,2013-09-09 12:44:00,
2013-09-09 08:46:00,70.7,69.5,30.19,East,82,0.0,0.0,96,0.00,CLR,,0.00,WeatherDisplay:10.37,2013-09-09 12:46:00,
2013-09-09 08:48:00,70.6,69.4,30.19,East,82,0.0,0.0,96,0.00,CLR,,0.00,WeatherDisplay:10.37,2013-09-09 12:48:00,
2013-09-09 08:49:00,70.8,69.3,30.19,East,82,0.0,0.0,95,0.00,CLR,,0.00,WeatherDisplay:10.37,2013-09-09 12:49:00,
2013-09-09 08:50:00,70.8,69.3,30.19,East,82,0.0,0.0,95,0.00,CLR,,0.00,WeatherDisplay:10.37,2013-09-09 12:50:00,
2013-09-09 08:51:00,70.5,69.0,30.19,East,82,0.0,0.0,95,0.00,CLR,,0.00,WeatherDisplay:10.37,2013-09-09 12:51:00,
2013-09-09 08:53:00,70.7,69.2,30.19,East,82,0.0,0.0,95,0.00,CLR,,0.00,WeatherDisplay:10.37,2013-09-09 12:53:00,
2013-09-09 08:54:00,71.0,69.5,30.19,East,82,0.0,0.0,95,0.00,CLR,,0.00,WeatherDisplay:10.37,2013-09-09 12:54:00,
2013-09-09 08:55:00,70.7,69.2,30.19,East,82,0.0,0.0,95,0.00,CLR,,0.00,WeatherDisplay:10.37,2013-09-09 12:55:00,
2013-09-09 08:57:00,70.7,69.2,30.19,East,82,0.0,0.0,95,0.00,CLR,,0.00,WeatherDisplay:10.37,2013-09-09 12:57:00,
2013-09-09 08:58:00,71.0,69.2,30.19,East,82,0.0,0.0,94,0.00,CLR,,0.00,WeatherDisplay:10.37,2013-09-09 12:58:00,
2013-09-09 08:59:00,70.6,68.8,30.19,ENE,76,1.7,0.0,94,0.00,CLR,,0.00,WeatherDisplay:10.37,2013-09-09 12:59:00,
2013-09-09 09:00:00,70.8,69.0,30.19,ENE,66,0.0,4.2,94,0.00,CLR,,0.00,WeatherDisplay:10.37,2013-09-09 13:00:00,
2013-09-09 09:02:00,70.6,68.8,30.20,East,97,4.3,5.8,94,0.00,CLR,,0.00,WeatherDisplay:10.37,2013-09-09 13:02:00,
2013-09-09 09:04:00,70.9,69.1,30.19,East,99,0.1,2.3,94,0.00,CLR,,0.00,WeatherDisplay:10.37,2013-09-09 13:04:00,
2013-09-09 09:05:00,70.7,68.9,30.19,East,80,1.0,2.3,94,0.00,CLR,,0.00,WeatherDisplay:10.37,2013-09-09 13:05:00,
2013-09-09 09:07:00,70.7,68.9,30.19,SE,126,2.8,5.8,94,0.00,CLR,,0.00,WeatherDisplay:10.37,2013-09-09 13:07:00,
2013-09-09 09:09:00,70.9,69.1,30.20,SE,141,1.3,4.4,94,0.00,CLR,,0.00,WeatherDisplay:10.37,2013-09-09 13:09:00,
2013-09-09 09:10:00,70.8,68.7,30.20,SE,133,3.6,6.7,93,0.00,CLR,,0.00,WeatherDisplay:10.37,2013-09-09 13:10:00,
2013-09-09 09:12:00,70.9,68.8,30.20,ESE,119,3.7,6.9,93,0.00,CLR,,0.00,WeatherDisplay:10.37,2013-09-09 13:12:00,
2013-09-09 09:14:00,71.0,68.9,30.20,East,79,5.0,10.4,93,0.00,CLR,,0.00,WeatherDisplay:10.37,2013-09-09 13:14:00,
2013-09-09 09:15:00,71.1,68.7,30.20,ENE,71,2.7,8.1,92,0.00,CLR,,0.00,WeatherDisplay:10.37,2013-09-09 13:15:00,
2013-09-09 09:17:00,71.3,68.9,30.20,SE,145,0.0,3.5,92,0.00,CLR,,0.00,WeatherDisplay:10.37,2013-09-09 13:17:00,
2013-09-09 09:18:00,71.4,69.0,30.20,SE,128,0.9,4.6,92,0.00,CLR,,0.00,WeatherDisplay:10.37,2013-09-09 13:18:00,
2013-09-09 09:19:00,71.1,68.7,30.20,ESE,102,2.9,3.5,92,0.00,CLR,,0.00,WeatherDisplay:10.37,2013-09-09 13:19:00,
2013-09-09 09:20:00,71.0,68.6,30.20,East,82,3.4,4.6,92,0.00,CLR,,0.00,WeatherDisplay:10.37,2013-09-09 13:20:00,
2013-09-09 09:22:00,71.4,69.0,30.20,NE,52,2.4,3.1,92,0.00,CLR,,0.00,WeatherDisplay:10.37,2013-09-09 13:22:00,
2013-09-09 09:23:00,71.3,68.9,30.20,SE,124,4.1,5.8,92,0.00,CLR,,0.00,WeatherDisplay:10.37,2013-09-09 13:23:00,
2013-09-09 09:25:00,71.3,68.9,30.20,NE,55,3.3,8.1,92,0.00,CLR,,0.00,WeatherDisplay:10.37,2013-09-09 13:25:00,
2013-09-09 09:27:00,71.3,69.5,30.20,East,90,0.6,8.1,94,0.00,CLR,,0.00,WeatherDisplay:10.37,2013-09-09 13:27:00,
2013-09-09 09:28:00,71.8,70.0,30.20,East,90,0.0,0.0,94,0.00,CLR,,0.00,WeatherDisplay:10.37,2013-09-09 13:28:00,
2013-09-09 09:30:00,71.5,69.4,30.20,NE,38,1.1,4.7,93,0.00,CLR,,0.00,WeatherDisplay:10.37,2013-09-09 13:30:00,
2013-09-09 09:31:00,71.8,69.7,30.21,NNE,24,2.6,9.2,93,0.00,CLR,,0.00,WeatherDisplay:10.37,2013-09-09 13:31:00,
2013-09-09 09:32:00,71.7,69.9,30.21,NNE,24,0.0,6.9,94,0.00,CLR,,0.00,WeatherDisplay:10.37,2013-09-09 13:32:00,
2013-09-09 09:33:00,71.7,70.2,30.21,NNE,24,0.0,0.0,95,0.00,CLR,,0.00,WeatherDisplay:10.37,2013-09-09 13:33:00,
2013-09-09 09:35:00,72.4,70.9,30.21,NNE,24,0.0,0.0,95,0.00,CLR,,0.00,WeatherDisplay:10.37,2013-09-09 13:35:00,
2013-09-09 09:36:00,72.4,70.6,30.21,NNE,24,0.0,0.0,94,0.00,CLR,,0.00,WeatherDisplay:10.37,2013-09-09 13:36:00,
2013-09-09 09:38:00,72.3,70.2,30.21,East,80,5.1,8.1,93,0.00,CLR,,0.00,WeatherDisplay:10.37,2013-09-09 13:38:00,
2013-09-09 09:39:00,72.3,70.2,30.21,ESE,112,4.4,7.0,93,0.00,CLR,,0.00,WeatherDisplay:10.37,2013-09-09 13:39:00,
2013-09-09 09:40:00,72.4,70.6,30.21,East,88,3.5,6.9,94,0.00,CLR,,0.00,WeatherDisplay:10.37,2013-09-09 13:40:00,
2013-09-09 09:41:00,72.4,70.3,30.21,SE,134,6.1,10.4,93,0.00,CLR,,0.00,WeatherDisplay:10.37,2013-09-09 13:41:00,
2013-09-09 09:42:00,72.2,70.1,30.21,SE,134,0.7,10.4,93,0.00,CLR,,0.00,WeatherDisplay:10.37,2013-09-09 13:42:00,
2013-09-09 09:43:00,72.5,70.7,30.21,ESE,117,3.2,8.1,94,0.00,CLR,,0.00,WeatherDisplay:10.37,2013-09-09 13:43:00,
2013-09-09 09:44:00,72.5,70.0,30.21,ESE,103,8.8,11.5,92,0.00,CLR,,0.00,WeatherDisplay:10.37,2013-09-09 13:44:00,
2013-09-09 09:45:00,72.3,70.2,30.21,SE,131,5.4,10.4,93,0.00,CLR,,0.00,WeatherDisplay:10.37,2013-09-09 13:45:00,
2013-09-09 09:47:00,72.4,70.6,30.21,ESE,114,1.8,5.8,94,0.00,CLR,,0.00,WeatherDisplay:10.37,2013-09-09 13:47:00,
2013-09-09 09:48:00,72.4,70.6,30.21,ESE,114,0.0,3.5,94,0.00,CLR,,0.00,WeatherDisplay:10.37,2013-09-09 13:48:00,
2013-09-09 09:49:00,72.6,70.8,30.21,ESE,114,0.0,0.0,94,0.00,CLR,,0.00,WeatherDisplay:10.37,2013-09-09 13:49:00,
2013-09-09 09:50:00,72.7,70.9,30.21,ESE,114,0.0,0.0,94,0.00,CLR,,0.00,WeatherDisplay:10.37,2013-09-09 13:50:00,
2013-09-09 09:51:00,72.7,70.9,30.21,ESE,114,0.0,0.0,94,0.00,CLR,,0.00,WeatherDisplay:10.37,2013-09-09 13:51:00,
2013-09-09 09:52:00,73.7,65.7,30.18,North,1,0.0,0.0,76,0.00,CLR,,0.00,WeatherDisplay:10.37,2013-09-09 13:52:00,
2013-09-09 09:53:00,73.1,71.6,30.21,East,99,2.6,5.2,95,0.00,CLR,,0.00,WeatherDisplay:10.37,2013-09-09 13:53:00,
2013-09-09 09:54:00,73.0,70.9,30.21,SE,134,3.9,5.8,93,0.00,CLR,,0.00,WeatherDisplay:10.37,2013-09-09 13:54:00,
2013-09-09 09:55:00,72.9,70.1,30.21,SE,133,4.6,6.6,91,0.00,CLR,,0.00,WeatherDisplay:10.37,2013-09-09 13:55:00,
2013-09-09 09:56:00,73.0,70.5,30.21,East,90,5.3,6.9,92,0.00,CLR,,0.00,WeatherDisplay:10.37,2013-09-09 13:56:00,
2013-09-09 09:57:00,72.7,70.2,30.21,East,90,0.0,8.1,92,0.00,CLR,,0.00,WeatherDisplay:10.37,2013-09-09 13:57:00,
2013-09-09 09:58:00,72.8,70.7,30.21,East,80,1.2,4.6,93,0.00,CLR,,0.00,WeatherDisplay:10.37,2013-09-09 13:58:00,
2013-09-09 10:00:00,72.9,70.8,30.22,East,82,0.4,2.5,93,0.00,CLR,,0.00,WeatherDisplay:10.37,2013-09-09 14:00:00,
2013-09-09 10:01:00,73.0,70.5,30.22,ESE,107,1.1,5.7,92,0.00,CLR,,0.00,WeatherDisplay:10.37,2013-09-09 14:01:00,
2013-09-09 10:03:00,72.7,70.2,30.22,South,176,3.5,3.5,92,0.00,CLR,,0.00,WeatherDisplay:10.37,2013-09-09 14:03:00,
2013-09-09 10:04:00,73.0,70.5,30.22,South,176,0.9,5.8,92,0.00,CLR,,0.00,WeatherDisplay:10.37,2013-09-09 14:04:00,
2013-09-09 10:05:00,72.6,69.8,30.22,SE,126,5.2,5.2,91,0.00,CLR,,0.00,WeatherDisplay:10.37,2013-09-09 14:05:00,
2013-09-09 10:06:00,72.9,69.8,30.22,East,100,5.1,6.9,90,0.00,CLR,,0.00,WeatherDisplay:10.37,2013-09-09 14:06:00,
2013-09-09 10:08:00,72.8,70.0,30.22,East,80,3.3,5.8,91,0.00,CLR,,0.00,WeatherDisplay:10.37,2013-09-09 14:08:00,
2013-09-09 10:09:00,72.8,70.0,30.22,East,99,4.7,5.8,91,0.00,CLR,,0.00,WeatherDisplay:10.37,2013-09-09 14:09:00,
2013-09-09 10:10:00,72.9,69.8,30.22,ESE,121,5.5,8.1,90,0.00,CLR,,0.00,WeatherDisplay:10.37,2013-09-09 14:10:00,
2013-09-09 10:11:00,72.7,69.6,30.22,ESE,121,6.1,8.1,90,0.00,CLR,,0.00,WeatherDisplay:10.37,2013-09-09 14:11:00,
2013-09-09 10:13:00,72.9,69.5,30.22,SE,126,0.0,0.0,89,0.00,CLR,,0.00,WeatherDisplay:10.37,2013-09-09 14:13:00,
2013-09-09 10:14:00,72.7,69.3,30.22,SE,127,1.6,5.6,89,0.00,CLR,,0.00,WeatherDisplay:10.37,2013-09-09 14:14:00,
2013-09-09 10:16:00,72.9,69.5,30.22,ESE,102,0.0,4.6,89,0.00,CLR,,0.00,WeatherDisplay:10.37,2013-09-09 14:16:00,
2013-09-09 10:18:00,72.8,69.0,30.22,ESE,117,4.7,8.1,88,0.00,CLR,,0.00,WeatherDisplay:10.37,2013-09-09 14:18:00,
2013-09-09 10:19:00,72.9,69.1,30.22,ESE,104,4.3,5.8,88,0.00,CLR,,0.00,WeatherDisplay:10.37,2013-09-09 14:19:00,
2013-09-09 10:20:00,72.6,68.8,30.22,ESE,104,4.4,5.8,88,0.00,CLR,,0.00,WeatherDisplay:10.37,2013-09-09 14:20:00,
2013-09-09 10:21:00,72.9,69.1,30.22,ESE,104,4.6,5.8,88,0.00,CLR,,0.00,WeatherDisplay:10.37,2013-09-09 14:21:00,
2013-09-09 10:23:00,72.7,68.6,30.22,East,85,4.5,5.8,87,0.00,CLR,,0.00,WeatherDisplay:10.37,2013-09-09 14:23:00,
2013-09-09 10:24:00,72.9,68.8,30.22,ESE,116,2.3,5.8,87,0.00,CLR,,0.00,WeatherDisplay:10.37,2013-09-09 14:24:00,
2013-09-09 10:26:00,72.8,68.7,30.22,ESE,116,0.0,3.5,87,0.00,CLR,,0.00,WeatherDisplay:10.37,2013-09-09 14:26:00,
2013-09-09 10:27:00,72.8,68.7,30.22,ESE,107,1.2,4.7,87,0.00,CLR,,0.00,WeatherDisplay:10.37,2013-09-09 14:27:00,
2013-09-09 10:28:00,72.6,68.2,30.22,SSE,148,5.4,6.9,86,0.00,CLR,,0.00,WeatherDisplay:10.37,2013-09-09 14:28:00,
2013-09-09 10:30:00,72.7,68.3,30.22,ENE,62,2.9,5.8,86,0.00,CLR,,0.00,WeatherDisplay:10.37,2013-09-09 14:30:00,
2013-09-09 10:31:00,72.7,68.3,30.22,SE,136,6.2,10.4,86,0.00,CLR,,0.00,WeatherDisplay:10.37,2013-09-09 14:31:00,
2013-09-09 10:32:00,72.8,68.4,30.22,ESE,104,6.2,9.2,86,0.00,CLR,,0.00,WeatherDisplay:10.37,2013-09-09 14:32:00,
2013-09-09 10:33:00,72.8,68.0,30.22,SE,124,3.5,8.1,85,0.00,CLR,,0.00,WeatherDisplay:10.37,2013-09-09 14:33:00,
2013-09-09 10:35:00,72.8,68.0,30.22,East,100,4.8,7.1,85,0.00,CLR,,0.00,WeatherDisplay:10.37,2013-09-09 14:35:00,
2013-09-09 10:36:00,72.7,68.3,30.22,East,85,5.0,8.1,86,0.00,CLR,,0.00,WeatherDisplay:10.37,2013-09-09 14:36:00,
2013-09-09 10:37:00,72.7,68.3,30.22,East,89,4.6,6.9,86,0.00,CLR,,0.00,WeatherDisplay:10.37,2013-09-09 14:37:00,
2013-09-09 10:38:00,72.8,68.7,30.22,East,89,4.2,5.8,87,0.00,CLR,,0.00,WeatherDisplay:10.37,2013-09-09 14:38:00,
2013-09-09 10:39:00,73.1,69.0,30.22,East,90,2.6,5.0,87,0.00,CLR,,0.00,WeatherDisplay:10.37,2013-09-09 14:39:00,
2013-09-09 10:41:00,72.9,68.8,30.22,NE,55,5.9,8.1,87,0.00,CLR,,0.00,WeatherDisplay:10.37,2013-09-09 14:41:00,
2013-09-09 10:42:00,73.3,69.2,30.22,ENE,73,5.5,8.1,87,0.00,CLR,,0.00,WeatherDisplay:10.37,2013-09-09 14:42:00,
2013-09-09 10:43:00,73.3,68.9,30.22,East,99,4.0,5.0,86,0.00,CLR,,0.00,WeatherDisplay:10.37,2013-09-09 14:43:00,
2013-09-09 10:44:00,73.5,69.4,30.22,ENE,71,1.7,8.1,87,0.00,CLR,,0.00,WeatherDisplay:10.37,2013-09-09 14:44:00,
2013-09-09 10:46:00,73.3,69.2,30.22,East,96,2.5,6.1,87,0.00,CLR,,0.00,WeatherDisplay:10.37,2013-09-09 14:46:00,
2013-09-09 10:47:00,73.6,69.5,30.22,ENE,65,2.8,6.7,87,0.00,CLR,,0.00,WeatherDisplay:10.37,2013-09-09 14:47:00,
2013-09-09 10:48:00,73.8,69.3,30.22,SE,126,5.6,8.1,86,0.00,CLR,,0.00,WeatherDisplay:10.37,2013-09-09 14:48:00,
2013-09-09 10:49:00,73.3,68.5,30.22,East,100,4.5,8.1,85,0.00,CLR,,0.00,WeatherDisplay:10.37,2013-09-09 14:49:00,
2013-09-09 10:52:00,73.9,68.4,30.22,NE,37,4.7,8.1,83,0.00,CLR,,0.00,WeatherDisplay:10.37,2013-09-09 14:52:00,
2013-09-09 10:53:00,73.9,68.4,30.23,South,179,2.4,5.8,83,0.00,CLR,,0.00,WeatherDisplay:10.37,2013-09-09 14:53:00,
2013-09-09 10:54:00,74.0,68.5,30.23,NE,47,1.9,4.6,83,0.00,CLR,,0.00,WeatherDisplay:10.37,2013-09-09 14:54:00,
2013-09-09 10:57:00,73.8,68.0,30.23,East,100,4.3,6.9,82,0.00,CLR,,0.00,WeatherDisplay:10.37,2013-09-09 14:57:00,
2013-09-09 10:58:00,74.1,67.9,30.23,SE,136,2.1,9.2,81,0.00,CLR,,0.00,WeatherDisplay:10.37,2013-09-09 14:58:00,
2013-09-09 10:59:00,73.9,67.7,30.23,SE,136,5.8,8.1,81,0.00,CLR,,0.00,WeatherDisplay:10.37,2013-09-09 14:59:00,
2013-09-09 11:02:00,74.1,67.5,30.23,SE,128,5.0,6.9,80,0.00,CLR,,0.00,WeatherDisplay:10.37,2013-09-09 15:02:00,
2013-09-09 11:03:00,74.1,66.8,30.23,ESE,104,3.7,7.6,78,0.00,CLR,,0.00,WeatherDisplay:10.37,2013-09-09 15:03:00,
2013-09-09 11:04:00,74.1,67.2,30.23,ENE,65,5.3,8.1,79,0.00,CLR,,0.00,WeatherDisplay:10.37,2013-09-09 15:04:00,
2013-09-09 11:07:00,74.1,66.8,30.23,ENE,71,3.8,4.6,78,0.00,CLR,,0.00,WeatherDisplay:10.37,2013-09-09 15:07:00,
2013-09-09 11:08:00,74.1,66.8,30.23,ENE,58,1.3,4.6,78,0.00,CLR,,0.00,WeatherDisplay:10.37,2013-09-09 15:08:00,
2013-09-09 11:09:00,74.1,66.4,30.23,ESE,116,1.0,4.6,77,0.00,CLR,,0.00,WeatherDisplay:10.37,2013-09-09 15:09:00,
2013-09-09 11:10:00,74.1,66.4,30.23,East,100,2.5,5.3,77,0.00,CLR,,0.00,WeatherDisplay:10.37,2013-09-09 15:10:00,
2013-09-09 11:12:00,74.1,66.0,30.23,ENE,62,7.1,7.1,76,0.00,CLR,,0.00,WeatherDisplay:10.37,2013-09-09 15:12:00,
2013-09-09 11:13:00,74.2,66.1,30.23,SSE,157,6.2,9.2,76,0.00,CLR,,0.00,WeatherDisplay:10.37,2013-09-09 15:13:00,
2013-09-09 11:14:00,74.1,66.0,30.23,East,89,5.0,8.1,76,0.00,CLR,,0.00,WeatherDisplay:10.37,2013-09-09 15:14:00,
2013-09-09 11:16:00,74.3,65.9,30.23,East,99,4.0,5.8,75,0.00,CLR,,0.00,WeatherDisplay:10.37,2013-09-09 15:16:00,
2013-09-09 11:17:00,74.2,65.4,30.23,East,96,4.7,8.1,74,0.00,CLR,,0.00,WeatherDisplay:10.37,2013-09-09 15:17:00,
2013-09-09 11:18:00,74.2,65.4,30.23,NE,51,4.7,8.1,74,0.00,CLR,,0.00,WeatherDisplay:10.37,2013-09-09 15:18:00,
2013-09-09 11:19:00,74.3,65.5,30.23,ESE,113,5.8,6.9,74,0.00,CLR,,0.00,WeatherDisplay:10.37,2013-09-09 15:19:00,
2013-09-09 11:22:00,74.2,65.4,30.23,East,79,0.2,6.9,74,0.00,CLR,,0.00,WeatherDisplay:10.37,2013-09-09 15:22:00,
2013-09-09 11:23:00,74.5,65.7,30.23,East,95,1.5,4.6,74,0.00,CLR,,0.00,WeatherDisplay:10.37,2013-09-09 15:23:00,
2013-09-09 11:24:00,74.7,65.9,30.23,East,82,0.2,4.6,74,0.00,CLR,,0.00,WeatherDisplay:10.37,2013-09-09 15:24:00,
2013-09-09 11:27:00,74.9,65.7,30.23,SE,127,1.4,8.1,73,0.00,CLR,,0.00,WeatherDisplay:10.37,2013-09-09 15:27:00,
2013-09-09 11:28:00,74.6,65.0,30.23,ENE,66,7.5,10.4,72,0.00,CLR,,0.00,WeatherDisplay:10.37,2013-09-09 15:28:00,
2013-09-09 11:29:00,75.1,65.5,30.23,ESE,104,7.1,10.4,72,0.00,CLR,,0.00,WeatherDisplay:10.37,2013-09-09 15:29:00,
2013-09-09 11:32:00,75.0,65.0,30.23,East,88,7.3,8.1,71,0.00,CLR,,0.00,WeatherDisplay:10.37,2013-09-09 15:32:00,
2013-09-09 11:33:00,74.8,64.8,30.23,SSE,152,8.8,13.8,71,0.00,CLR,,0.00,WeatherDisplay:10.37,2013-09-09 15:33:00,
2013-09-09 11:34:00,75.0,65.0,30.23,East,90,7.8,13.8,71,0.00,CLR,,0.00,WeatherDisplay:10.37,2013-09-09 15:34:00,
2013-09-09 11:35:00,74.4,64.4,30.23,ESE,123,7.1,11.5,71,0.00,CLR,,0.00,WeatherDisplay:10.37,2013-09-09 15:35:00,
2013-09-09 11:37:00,74.5,64.1,30.23,East,88,8.5,11.5,70,0.00,CLR,,0.00,WeatherDisplay:10.37,2013-09-09 15:37:00,
2013-09-09 11:39:00,74.6,64.6,30.23,ESE,107,4.0,10.4,71,0.00,CLR,,0.00,WeatherDisplay:10.37,2013-09-09 15:39:00,
2013-09-09 11:40:00,74.5,64.5,30.23,East,82,4.5,8.1,71,0.00,CLR,,0.00,WeatherDisplay:10.37,2013-09-09 15:40:00,
2013-09-09 11:42:00,74.3,64.7,30.23,NE,49,0.0,0.0,72,0.00,CLR,,0.00,WeatherDisplay:10.37,2013-09-09 15:42:00,
2013-09-09 11:43:00,74.4,64.8,30.23,ENE,73,2.0,5.5,72,0.00,CLR,,0.00,WeatherDisplay:10.37,2013-09-09 15:43:00,
2013-09-09 11:44:00,74.4,64.4,30.23,ENE,68,1.8,5.8,71,0.00,CLR,,0.00,WeatherDisplay:10.37,2013-09-09 15:44:00,
2013-09-09 11:45:00,74.7,64.7,30.23,ENE,76,2.5,3.5,71,0.00,CLR,,0.00,WeatherDisplay:10.37,2013-09-09 15:45:00,
2013-09-09 11:47:00,74.6,64.6,30.23,East,96,4.3,9.2,71,0.00,CLR,,0.00,WeatherDisplay:10.37,2013-09-09 15:47:00,
2013-09-09 11:49:00,74.7,64.3,30.23,SSE,152,5.5,9.2,70,0.00,CLR,,0.00,WeatherDisplay:10.37,2013-09-09 15:49:00,
2013-09-09 11:50:00,75.1,65.1,30.23,SE,130,5.3,6.9,71,0.00,CLR,,0.00,WeatherDisplay:10.37,2013-09-09 15:50:00,
2013-09-09 11:53:00,75.2,64.7,30.23,East,89,5.8,8.1,70,0.00,CLR,,0.00,WeatherDisplay:10.37,2013-09-09 15:53:00,
2013-09-09 11:54:00,74.9,64.5,30.23,SE,128,3.7,8.1,70,0.00,CLR,,0.00,WeatherDisplay:10.37,2013-09-09 15:54:00,
2013-09-09 11:55:00,75.2,64.7,30.23,ESE,120,4.5,7.6,70,0.00,CLR,,0.00,WeatherDisplay:10.37,2013-09-09 15:55:00,
2013-09-09 11:58:00,74.9,64.5,30.23,ESE,123,7.6,9.2,70,0.00,CLR,,0.00,WeatherDisplay:10.37,2013-09-09 15:58:00,
2013-09-09 11:59:00,75.0,64.5,30.23,East,90,5.8,9.2,70,0.00,CLR,,0.00,WeatherDisplay:10.37,2013-09-09 15:59:00,
2013-09-09 12:00:00,75.0,64.5,30.23,ESE,104,5.5,10.0,70,0.00,CLR,,0.00,WeatherDisplay:10.37,2013-09-09 16:00:00,
2013-09-09 12:03:00,75.3,64.4,30.23,East,100,5.7,8.1,69,0.00,CLR,,0.00,WeatherDisplay:10.37,2013-09-09 16:03:00,
2013-09-09 12:04:00,75.3,64.4,30.23,ESE,102,5.7,8.1,69,0.00,CLR,,0.00,WeatherDisplay:10.37,2013-09-09 16:04:00,
2013-09-09 12:05:00,75.7,64.8,30.23,East,96,5.2,8.1,69,0.00,CLR,,0.00,WeatherDisplay:10.37,2013-09-09 16:05:00,
2013-09-09 12:06:00,75.5,64.6,30.23,NE,37,5.3,10.4,69,0.00,CLR,,0.00,WeatherDisplay:10.37,2013-09-09 16:06:00,
2013-09-09 12:08:00,75.7,64.4,30.23,East,83,3.5,6.9,68,0.00,CLR,,0.00,WeatherDisplay:10.37,2013-09-09 16:08:00,
2013-09-09 12:09:00,75.9,64.6,30.23,South,175,3.7,6.9,68,0.00,CLR,,0.00,WeatherDisplay:10.37,2013-09-09 16:09:00,
2013-09-09 12:10:00,75.6,64.3,30.23,SE,124,4.5,6.9,68,0.00,CLR,,0.00,WeatherDisplay:10.37,2013-09-09 16:10:00,
2013-09-09 12:11:00,75.6,63.9,30.23,East,90,1.3,5.8,67,0.00,CLR,,0.00,WeatherDisplay:10.37,2013-09-09 16:11:00,
2013-09-09 12:14:00,76.2,64.4,30.23,East,90,5.4,9.3,67,0.00,CLR,,0.00,WeatherDisplay:10.37,2013-09-09 16:14:00,
2013-09-09 12:15:00,75.6,63.4,30.23,East,99,6.8,9.2,66,0.00,CLR,,0.00,WeatherDisplay:10.37,2013-09-09 16:15:00,
2013-09-09 12:16:00,75.9,64.2,30.23,East,89,4.6,8.1,67,0.00,CLR,,0.00,WeatherDisplay:10.37,2013-09-09 16:16:00,
2013-09-09 12:19:00,76.0,64.2,30.23,ENE,76,0.0,4.6,67,0.00,CLR,,0.00,WeatherDisplay:10.37,2013-09-09 16:19:00,
2013-09-09 12:20:00,76.0,64.2,30.23,ENE,76,0.0,4.6,67,0.00,CLR,,0.00,WeatherDisplay:10.37,2013-09-09 16:20:00,
2013-09-09 12:21:00,76.1,64.3,30.23,ESE,123,0.8,0.0,67,0.00,CLR,,0.00,WeatherDisplay:10.37,2013-09-09 16:21:00,
2013-09-09 12:22:00,76.0,64.2,30.23,NE,48,2.9,6.9,67,0.00,CLR,,0.00,WeatherDisplay:10.37,2013-09-09 16:22:00,
2013-09-09 12:25:00,75.9,64.2,30.23,ESE,106,1.1,5.2,67,0.00,CLR,,0.00,WeatherDisplay:10.37,2013-09-09 16:25:00,
2013-09-09 12:26:00,76.0,63.8,30.23,SE,126,6.8,8.1,66,0.00,CLR,,0.00,WeatherDisplay:10.37,2013-09-09 16:26:00,
2013-09-09 12:27:00,76.2,64.0,30.23,NE,44,2.2,9.2,66,0.00,CLR,,0.00,WeatherDisplay:10.37,2013-09-09 16:27:00,
2013-09-09 12:30:00,76.0,63.8,30.23,East,92,6.1,10.4,66,0.00,CLR,,0.00,WeatherDisplay:10.37,2013-09-09 16:30:00,
2013-09-09 12:31:00,76.1,63.5,30.23,ESE,110,3.4,8.1,65,0.00,CLR,,0.00,WeatherDisplay:10.37,2013-09-09 16:31:00,
2013-09-09 12:32:00,76.1,63.5,30.23,East,93,5.3,6.9,65,0.00,CLR,,0.00,WeatherDisplay:10.37,2013-09-09 16:32:00,
2013-09-09 12:35:00,76.2,64.0,30.23,NE,55,0.5,5.8,66,0.00,CLR,,0.00,WeatherDisplay:10.37,2013-09-09 16:35:00,
2013-09-09 12:36:00,76.0,63.4,30.23,SE,143,1.3,3.5,65,0.00,CLR,,0.00,WeatherDisplay:10.37,2013-09-09 16:36:00,
2013-09-09 12:38:00,75.7,63.5,30.23,ENE,62,1.5,4.6,66,0.00,CLR,,0.00,WeatherDisplay:10.37,2013-09-09 16:38:00,
2013-09-09 12:40:00,76.1,63.5,30.23,East,83,2.3,7.0,65,0.00,CLR,,0.00,WeatherDisplay:10.37,2013-09-09 16:40:00,
2013-09-09 12:41:00,75.7,63.1,30.23,ENE,59,5.6,7.6,65,0.00,CLR,,0.00,WeatherDisplay:10.37,2013-09-09 16:41:00,
2013-09-09 12:43:00,75.9,63.3,30.23,East,79,0.0,3.5,65,0.00,CLR,,0.00,WeatherDisplay:10.37,2013-09-09 16:43:00,
2013-09-09 12:44:00,76.1,63.5,30.23,East,79,0.0,3.5,65,0.00,CLR,,0.00,WeatherDisplay:10.37,2013-09-09 16:44:00,
2013-09-09 12:45:00,76.0,63.4,30.23,East,79,0.0,0.0,65,0.00,CLR,,0.00,WeatherDisplay:10.37,2013-09-09 16:45:00,
2013-09-09 12:46:00,76.0,63.8,30.23,ESE,117,2.9,5.8,66,0.00,CLR,,0.00,WeatherDisplay:10.37,2013-09-09 16:46:00,
2013-09-09 12:47:00,76.0,63.8,30.23,ESE,103,3.3,5.8,66,0.00,CLR,,0.00,WeatherDisplay:10.37,2013-09-09 16:47:00,
2013-09-09 12:49:00,76.1,63.9,30.23,SE,124,0.0,3.5,66,0.00,CLR,,0.00,WeatherDisplay:10.37,2013-09-09 16:49:00,
2013-09-09 12:50:00,76.0,63.4,30.23,SE,124,0.0,0.0,65,0.00,CLR,,0.00,WeatherDisplay:10.37,2013-09-09 16:50:00,
2013-09-09 12:51:00,76.0,63.8,30.23,SE,124,0.0,0.0,66,0.00,CLR,,0.00,WeatherDisplay:10.37,2013-09-09 16:51:00,
2013-09-09 12:52:00,76.2,63.6,30.23,SE,124,0.2,0.0,65,0.00,CLR,,0.00,WeatherDisplay:10.37,2013-09-09 16:52:00,
2013-09-09 12:54:00,76.1,63.5,30.23,SE,131,1.7,4.7,65,0.00,CLR,,0.00,WeatherDisplay:10.37,2013-09-09 16:54:00,
2013-09-09 12:55:00,76.2,63.6,30.23,South,185,3.3,5.8,65,0.00,CLR,,0.00,WeatherDisplay:10.37,2013-09-09 16:55:00,
2013-09-09 12:56:00,76.2,63.1,30.23,South,185,3.9,5.8,64,0.00,CLR,,0.00,WeatherDisplay:10.37,2013-09-09 16:56:00,
2013-09-09 12:57:00,75.7,62.7,30.23,SSW,195,1.8,5.8,64,0.00,CLR,,0.00,WeatherDisplay:10.37,2013-09-09 16:57:00,
2013-09-09 12:59:00,76.1,63.5,30.23,SE,137,0.7,4.6,65,0.00,CLR,,0.00,WeatherDisplay:10.37,2013-09-09 16:59:00,
2013-09-09 13:00:00,76.0,63.4,30.23,SE,137,0.0,0.0,65,0.00,CLR,,0.00,WeatherDisplay:10.37,2013-09-09 17:00:00,
2013-09-09 13:01:00,76.2,63.6,30.23,SE,137,0.0,0.0,65,0.00,CLR,,0.00,WeatherDisplay:10.37,2013-09-09 17:01:00,
2013-09-09 13:02:00,76.0,63.4,30.23,SE,137,0.0,0.0,65,0.00,CLR,,0.00,WeatherDisplay:10.37,2013-09-09 17:02:00,
2013-09-09 13:04:00,76.2,63.6,30.23,NE,45,0.0,0.0,65,0.00,CLR,,0.00,WeatherDisplay:10.37,2013-09-09 17:04:00,
2013-09-09 13:05:00,76.1,63.5,30.23,NE,45,0.0,0.0,65,0.00,CLR,,0.00,WeatherDisplay:10.37,2013-09-09 17:05:00,
2013-09-09 13:07:00,76.2,63.6,30.23,NE,45,0.0,0.0,65,0.00,CLR,,0.00,WeatherDisplay:10.37,2013-09-09 17:07:00,
2013-09-09 13:10:00,76.3,63.2,30.23,ESE,121,5.7,6.9,64,0.00,CLR,,0.00,WeatherDisplay:10.37,2013-09-09 17:10:00,
2013-09-09 13:11:00,76.0,62.5,30.23,ESE,114,2.6,6.9,63,0.00,CLR,,0.00,WeatherDisplay:10.37,2013-09-09 17:11:00,
2013-09-09 13:12:00,76.9,63.3,30.23,NE,45,0.4,6.9,63,0.00,CLR,,0.00,WeatherDisplay:10.37,2013-09-09 17:12:00,
2013-09-09 13:15:00,76.4,63.3,30.23,SE,131,3.7,4.6,64,0.00,CLR,,0.00,WeatherDisplay:10.37,2013-09-09 17:15:00,
2013-09-09 13:16:00,76.4,63.3,30.23,SSE,147,1.6,4.6,64,0.00,CLR,,0.00,WeatherDisplay:10.37,2013-09-09 17:16:00,
2013-09-09 13:17:00,76.4,63.3,30.23,ENE,59,0.6,4.6,64,0.00,CLR,,0.00,WeatherDisplay:10.37,2013-09-09 17:17:00,
2013-09-09 13:20:00,76.2,63.1,30.23,East,79,0.9,5.8,64,0.00,CLR,,0.00,WeatherDisplay:10.37,2013-09-09 17:20:00,
2013-09-09 13:21:00,76.2,62.7,30.23,ENE,64,1.3,5.8,63,0.00,CLR,,0.00,WeatherDisplay:10.37,2013-09-09 17:21:00,
2013-09-09 13:22:00,76.7,63.2,30.23,ENE,64,0.0,3.5,63,0.00,CLR,,0.00,WeatherDisplay:10.37,2013-09-09 17:22:00,
2013-09-09 13:23:00,76.3,62.8,30.23,ENE,64,0.0,3.5,63,0.00,CLR,,0.00,WeatherDisplay:10.37,2013-09-09 17:23:00,
2013-09-09 13:24:00,76.7,63.2,30.23,ENE,64,0.0,0.0,63,0.00,CLR,,0.00,WeatherDisplay:10.37,2013-09-09 17:24:00,
2013-09-09 13:26:00,76.4,62.9,30.23,ENE,64,0.0,0.0,63,0.00,CLR,,0.00,WeatherDisplay:10.37,2013-09-09 17:26:00,
2013-09-09 13:27:00,76.6,63.5,30.23,SE,130,2.5,5.8,64,0.00,CLR,,0.00,WeatherDisplay:10.37,2013-09-09 17:27:00,
2013-09-09 13:28:00,76.5,63.0,30.23,SE,130,2.1,5.8,63,0.00,CLR,,0.00,WeatherDisplay:10.37,2013-09-09 17:28:00,
2013-09-09 13:29:00,76.2,62.7,30.23,SSE,168,2.3,5.8,63,0.00,CLR,,0.00,WeatherDisplay:10.37,2013-09-09 17:29:00,
2013-09-09 13:31:00,76.3,62.8,30.23,East,79,0.9,0.0,63,0.00,CLR,,0.00,WeatherDisplay:10.37,2013-09-09 17:31:00,
2013-09-09 13:32:00,76.3,62.8,30.23,SSE,148,5.9,6.9,63,0.00,CLR,,0.00,WeatherDisplay:10.37,2013-09-09 17:32:00,
2013-09-09 13:33:00,76.6,63.1,30.23,SE,138,4.0,6.9,63,0.00,CLR,,0.00,WeatherDisplay:10.37,2013-09-09 17:33:00,
2013-09-09 13:34:00,76.2,62.7,30.23,ESE,106,0.5,3.5,63,0.00,CLR,,0.00,WeatherDisplay:10.37,2013-09-09 17:34:00,
2013-09-09 13:36:00,76.9,63.8,30.23,ESE,106,0.1,2.3,64,0.00,CLR,,0.00,WeatherDisplay:10.37,2013-09-09 17:36:00,
2013-09-09 13:37:00,76.3,62.8,30.23,ESE,106,0.0,0.0,63,0.00,CLR,,0.00,WeatherDisplay:10.37,2013-09-09 17:37:00,
2013-09-09 13:38:00,76.3,62.8,30.23,ESE,106,0.0,0.0,63,0.00,CLR,,0.00,WeatherDisplay:10.37,2013-09-09 17:38:00,
2013-09-09 13:39:00,76.3,62.8,30.23,SE,124,0.9,3.5,63,0.00,CLR,,0.00,WeatherDisplay:10.37,2013-09-09 17:39:00,
2013-09-09 13:41:00,76.8,62.3,30.23,SE,124,0.0,0.0,61,0.00,CLR,,0.00,WeatherDisplay:10.37,2013-09-09 17:41:00,
2013-09-09 13:42:00,76.6,62.6,30.23,SE,124,0.0,0.0,62,0.00,CLR,,0.00,WeatherDisplay:10.37,2013-09-09 17:42:00,
2013-09-09 13:43:00,76.3,62.3,30.23,SE,124,0.0,0.0,62,0.00,CLR,,0.00,WeatherDisplay:10.37,2013-09-09 17:43:00,
2013-09-09 13:44:00,76.3,62.3,30.23,SE,124,0.0,0.0,62,0.00,CLR,,0.00,WeatherDisplay:10.37,2013-09-09 17:44:00,
2013-09-09 13:46:00,76.5,63.0,30.23,SE,143,0.2,2.3,63,0.00,CLR,,0.00,WeatherDisplay:10.37,2013-09-09 17:46:00,
2013-09-09 13:47:00,76.9,63.3,30.23,SE,143,2.8,4.6,63,0.00,CLR,,0.00,WeatherDisplay:10.37,2013-09-09 17:47:00,
2013-09-09 13:48:00,76.5,63.0,30.23,East,99,2.9,5.4,63,0.00,CLR,,0.00,WeatherDisplay:10.37,2013-09-09 17:48:00,
2013-09-09 13:49:00,76.7,63.2,30.23,ESE,110,5.1,5.8,63,0.00,CLR,,0.00,WeatherDisplay:10.37,2013-09-09 17:49:00,
2013-09-09 13:50:00,77.1,63.5,30.23,ESE,123,3.2,6.9,63,0.00,CLR,,0.00,WeatherDisplay:10.37,2013-09-09 17:50:00,
2013-09-09 13:51:00,76.5,63.0,30.23,ESE,121,3.6,5.0,63,0.00,CLR,,0.00,WeatherDisplay:10.37,2013-09-09 17:51:00,
2013-09-09 13:52:00,76.3,62.8,30.23,ESE,123,3.7,6.9,63,0.00,CLR,,0.00,WeatherDisplay:10.37,2013-09-09 17:52:00,
2013-09-09 13:53:00,76.8,63.2,30.22,East,79,1.3,4.6,63,0.00,CLR,,0.00,WeatherDisplay:10.37,2013-09-09 17:53:00,
2013-09-09 13:54:00,77.2,63.6,30.22,East,79,0.0,4.6,63,0.00,CLR,,0.00,WeatherDisplay:10.37,2013-09-09 17:54:00,
2013-09-09 13:56:00,76.6,63.1,30.23,East,79,0.0,0.0,63,0.00,CLR,,0.00,WeatherDisplay:10.37,2013-09-09 17:56:00,
2013-09-09 13:58:00,76.5,62.0,30.23,SW,215,1.6,5.8,61,0.00,CLR,,0.00,WeatherDisplay:10.37,2013-09-09 17:58:00,
2013-09-09 13:59:00,77.0,63.0,30.23,SE,138,2.9,3.5,62,0.00,CLR,,0.00,WeatherDisplay:10.37,2013-09-09 17:59:00,
2013-09-09 14:02:00,77.0,63.0,30.23,SE,137,0.0,3.5,62,0.00,CLR,,0.00,WeatherDisplay:10.37,2013-09-09 18:02:00,
2013-09-09 14:03:00,76.8,62.8,30.23,SE,137,0.0,0.0,62,0.00,CLR,,0.00,WeatherDisplay:10.37,2013-09-09 18:03:00,
2013-09-09 14:04:00,76.4,62.4,30.23,SE,137,0.0,2.3,62,0.00,CLR,,0.00,WeatherDisplay:10.37,2013-09-09 18:04:00,
2013-09-09 14:05:00,76.6,63.1,30.23,WSW,250,1.8,4.6,63,0.00,CLR,,0.00,WeatherDisplay:10.37,2013-09-09 18:05:00,
2013-09-09 14:07:00,76.5,63.0,30.23,WSW,250,0.0,0.0,63,0.00,CLR,,0.00,WeatherDisplay:10.37,2013-09-09 18:07:00,
2013-09-09 14:08:00,76.8,63.2,30.23,WSW,250,0.0,0.0,63,0.00,CLR,,0.00,WeatherDisplay:10.37,2013-09-09 18:08:00,
2013-09-09 14:09:00,76.7,63.2,30.23,WSW,250,0.4,0.0,63,0.00,CLR,,0.00,WeatherDisplay:10.37,2013-09-09 18:09:00,
2013-09-09 14:10:00,76.7,63.2,30.23,WSW,250,0.0,0.0,63,0.00,CLR,,0.00,WeatherDisplay:10.37,2013-09-09 18:10:00,
2013-09-09 14:12:00,76.7,63.6,30.23,WSW,250,0.0,0.0,64,0.00,CLR,,0.00,WeatherDisplay:10.37,2013-09-09 18:12:00,
2013-09-09 14:13:00,76.7,63.2,30.22,East,86,0.3,1.6,63,0.00,CLR,,0.00,WeatherDisplay:10.37,2013-09-09 18:13:00,
2013-09-09 14:14:00,76.7,63.2,30.22,East,86,0.0,1.1,63,0.00,CLR,,0.00,WeatherDisplay:10.37,2013-09-09 18:14:00,
2013-09-09 14:15:00,77.3,63.7,30.22,East,86,0.0,0.0,63,0.00,CLR,,0.00,WeatherDisplay:10.37,2013-09-09 18:15:00,
2013-09-09 14:16:00,77.2,63.2,30.22,East,86,0.0,0.0,62,0.00,CLR,,0.00,WeatherDisplay:10.37,2013-09-09 18:16:00,
2013-09-09 14:17:00,76.8,62.8,30.22,East,86,0.0,0.0,62,0.00,CLR,,0.00,WeatherDisplay:10.37,2013-09-09 18:17:00,
2013-09-09 14:18:00,76.6,62.6,30.22,East,97,4.0,5.8,62,0.00,CLR,,0.00,WeatherDisplay:10.37,2013-09-09 18:18:00,
2013-09-09 14:19:00,76.7,62.7,30.22,East,97,0.0,4.6,62,0.00,CLR,,0.00,WeatherDisplay:10.37,2013-09-09 18:19:00,
2013-09-09 14:21:00,77.8,63.7,30.22,SSE,147,3.8,6.0,62,0.00,CLR,,0.00,WeatherDisplay:10.37,2013-09-09 18:21:00,
2013-09-09 14:22:00,77.8,63.7,30.22,East,100,3.9,6.9,62,0.00,CLR,,0.00,WeatherDisplay:10.37,2013-09-09 18:22:00,
2013-09-09 14:23:00,76.7,62.7,30.22,East,90,2.5,5.8,62,0.00,CLR,,0.00,WeatherDisplay:10.37,2013-09-09 18:23:00,
2013-09-09 14:24:00,77.4,62.9,30.22,SE,145,1.6,4.6,61,0.00,CLR,,0.00,WeatherDisplay:10.37,2013-09-09 18:24:00,
2013-09-09 14:26:00,76.9,62.9,30.22,SSE,164,4.0,5.8,62,0.00,CLR,,0.00,WeatherDisplay:10.37,2013-09-09 18:26:00,
2013-09-09 14:27:00,77.7,63.6,30.22,South,171,3.1,5.8,62,0.00,CLR,,0.00,WeatherDisplay:10.37,2013-09-09 18:27:00,
2013-09-09 14:28:00,77.1,63.1,30.22,ESE,112,2.6,4.6,62,0.00,CLR,,0.00,WeatherDisplay:10.37,2013-09-09 18:28:00,
2013-09-09 14:29:00,77.1,63.1,30.22,East,89,1.7,4.6,62,0.00,CLR,,0.00,WeatherDisplay:10.37,2013-09-09 18:29:00,
2013-09-09 14:32:00,76.5,62.5,30.22,East,88,0.0,0.0,62,0.00,CLR,,0.00,WeatherDisplay:10.37,2013-09-09 18:32:00,
2013-09-09 14:33:00,77.3,63.3,30.22,East,88,0.0,0.0,62,0.00,CLR,,0.00,WeatherDisplay:10.37,2013-09-09 18:33:00,
2013-09-09 14:34:00,77.1,63.1,30.22,East,88,0.0,0.0,62,0.00,CLR,,0.00,WeatherDisplay:10.37,2013-09-09 18:34:00,
2013-09-09 14:37:00,77.2,62.7,30.22,East,88,0.0,0.0,61,0.00,CLR,,0.00,WeatherDisplay:10.37,2013-09-09 18:37:00,
2013-09-09 14:38:00,77.3,62.8,30.22,East,88,0.0,0.0,61,0.00,CLR,,0.00,WeatherDisplay:10.37,2013-09-09 18:38:00,
2013-09-09 14:39:00,77.1,62.1,30.22,East,88,0.0,0.0,60,0.00,CLR,,0.00,WeatherDisplay:10.37,2013-09-09 18:39:00,
2013-09-09 14:42:00,77.4,62.9,30.22,East,80,2.3,4.6,61,0.00,CLR,,0.00,WeatherDisplay:10.37,2013-09-09 18:42:00,
2013-09-09 14:43:00,78.0,63.5,30.22,East,80,0.0,0.0,61,0.00,CLR,,0.00,WeatherDisplay:10.37,2013-09-09 18:43:00,
2013-09-09 14:44:00,77.0,62.5,30.22,NE,56,1.0,0.0,61,0.00,CLR,,0.00,WeatherDisplay:10.37,2013-09-09 18:44:00,
2013-09-09 14:45:00,76.9,62.4,30.22,ESE,121,2.6,5.8,61,0.00,CLR,,0.00,WeatherDisplay:10.37,2013-09-09 18:45:00,
2013-09-09 14:48:00,78.2,63.2,30.22,ESE,116,5.2,5.8,60,0.00,CLR,,0.00,WeatherDisplay:10.37,2013-09-09 18:48:00,
2013-09-09 14:49:00,78.8,63.7,30.22,East,95,1.9,6.9,60,0.00,CLR,,0.00,WeatherDisplay:10.37,2013-09-09 18:49:00,
2013-09-09 14:50:00,77.7,62.7,30.22,East,95,0.0,3.5,60,0.00,CLR,,0.00,WeatherDisplay:10.37,2013-09-09 18:50:00,
2013-09-09 14:53:00,78.0,63.0,30.21,SE,133,0.5,3.5,60,0.00,CLR,,0.00,WeatherDisplay:10.37,2013-09-09 18:53:00,
2013-09-09 14:54:00,77.7,62.7,30.21,SE,143,2.5,5.8,60,0.00,CLR,,0.00,WeatherDisplay:10.37,2013-09-09 18:54:00,
2013-09-09 14:55:00,77.9,62.9,30.21,SE,143,0.5,5.8,60,0.00,CLR,,0.00,WeatherDisplay:10.37,2013-09-09 18:55:00,
2013-09-09 14:56:00,77.8,62.8,30.21,SSE,151,1.1,3.5,60,0.00,CLR,,0.00,WeatherDisplay:10.37,2013-09-09 18:56:00,
2013-09-09 14:58:00,77.9,62.9,30.21,SE,127,1.4,5.8,60,0.00,CLR,,0.00,WeatherDisplay:10.37,2013-09-09 18:58:00,
2013-09-09 14:59:00,78.3,62.8,30.21,East,95,1.0,5.8,59,0.00,CLR,,0.00,WeatherDisplay:10.37,2013-09-09 18:59:00,
2013-09-09 15:00:00,79.2,63.6,30.21,East,95,1.0,5.8,59,0.00,CLR,,0.00,WeatherDisplay:10.37,2013-09-09 19:00:00,
2013-09-09 15:03:00,79.3,63.7,30.21,SE,130,0.0,0.0,59,0.00,CLR,,0.00,WeatherDisplay:10.37,2013-09-09 19:03:00,
2013-09-09 15:04:00,79.3,62.7,30.21,SE,130,0.0,0.0,57,0.00,CLR,,0.00,WeatherDisplay:10.37,2013-09-09 19:04:00,
2013-09-09 15:05:00,79.1,63.1,30.21,SE,130,0.0,0.0,58,0.00,CLR,,0.00,WeatherDisplay:10.37,2013-09-09 19:05:00,
2013-09-09 15:08:00,78.9,61.9,30.21,SE,145,0.0,3.5,56,0.00,CLR,,0.00,WeatherDisplay:10.37,2013-09-09 19:08:00,
2013-09-09 15:09:00,79.7,62.6,30.21,SE,145,0.0,0.0,56,0.00,CLR,,0.00,WeatherDisplay:10.37,2013-09-09 19:09:00,
2013-09-09 15:10:00,80.1,63.0,30.21,SE,145,0.0,0.0,56,0.00,CLR,,0.00,WeatherDisplay:10.37,2013-09-09 19:10:00,
2013-09-09 15:11:00,79.3,62.7,30.21,SE,145,0.0,0.0,57,0.00,CLR,,0.00,WeatherDisplay:10.37,2013-09-09 19:11:00,
2013-09-09 15:13:00,79.9,63.8,30.20,NE,56,0.0,3.5,58,0.00,CLR,,0.00,WeatherDisplay:10.37,2013-09-09 19:13:00,
2013-09-09 15:14:00,79.4,63.3,30.20,NE,56,0.0,0.0,58,0.00,CLR,,0.00,WeatherDisplay:10.37,2013-09-09 19:14:00,
2013-09-09 15:15:00,79.5,62.9,30.20,NE,56,0.0,0.0,57,0.00,CLR,,0.00,WeatherDisplay:10.37,2013-09-09 19:15:00,
2013-09-09 15:16:00,79.0,62.5,30.20,South,176,4.7,8.1,57,0.00,CLR,,0.00,WeatherDisplay:10.37,2013-09-09 19:16:00,
2013-09-09 15:18:00,80.5,63.9,30.20,NE,56,2.0,8.1,57,0.00,CLR,,0.00,WeatherDisplay:10.37,2013-09-09 19:18:00,
2013-09-09 15:19:00,79.5,62.9,30.20,NE,56,0.0,5.8,57,0.00,CLR,,0.00,WeatherDisplay:10.37,2013-09-09 19:19:00,
2013-09-09 15:20:00,79.9,63.3,30.20,NE,56,0.0,5.8,57,0.00,CLR,,0.00,WeatherDisplay:10.37,2013-09-09 19:20:00,
2013-09-09 15:21:00,79.9,62.8,30.20,NE,56,0.0,0.0,56,0.00,CLR,,0.00,WeatherDisplay:10.37,2013-09-09 19:21:00,
2013-09-09 15:22:00,79.9,62.8,30.20,NE,56,0.0,0.0,56,0.00,CLR,,0.00,WeatherDisplay:10.37,2013-09-09 19:22:00,
2013-09-09 15:23:00,80.8,63.6,30.20,SSW,198,2.6,5.2,56,0.00,CLR,,0.00,WeatherDisplay:10.37,2013-09-09 19:23:00,
2013-09-09 15:24:00,80.1,63.0,30.20,South,182,3.2,6.9,56,0.00,CLR,,0.00,WeatherDisplay:10.37,2013-09-09 19:24:00,
2013-09-09 15:25:00,79.7,62.6,30.20,South,182,0.4,4.6,56,0.00,CLR,,0.00,WeatherDisplay:10.37,2013-09-09 19:25:00,
2013-09-09 15:27:00,80.5,63.4,30.20,West,275,1.6,4.6,56,0.00,CLR,,0.00,WeatherDisplay:10.37,2013-09-09 19:27:00,
2013-09-09 15:29:00,78.8,62.3,30.20,West,275,0.0,0.0,57,0.00,CLR,,0.00,WeatherDisplay:10.37,2013-09-09 19:29:00,
2013-09-09 15:30:00,79.8,63.2,30.20,West,275,0.0,0.0,57,0.00,CLR,,0.00,WeatherDisplay:10.37,2013-09-09 19:30:00,
2013-09-09 15:32:00,77.7,61.7,30.20,West,275,0.0,0.0,58,0.00,CLR,,0.00,WeatherDisplay:10.37,2013-09-09 19:32:00,
2013-09-09 15:34:00,79.1,63.5,30.20,ENE,59,3.5,6.9,59,0.00,CLR,,0.00,WeatherDisplay:10.37,2013-09-09 19:34:00,
2013-09-09 15:35:00,78.4,62.4,30.20,ENE,59,0.0,3.5,58,0.00,CLR,,0.00,WeatherDisplay:10.37,2013-09-09 19:35:00,
2013-09-09 15:36:00,79.3,63.7,30.20,ENE,59,0.0,3.5,59,0.00,CLR,,0.00,WeatherDisplay:10.37,2013-09-09 19:36:00,
2013-09-09 15:37:00,79.2,63.6,30.20,West,265,0.1,4.5,59,0.00,CLR,,0.00,WeatherDisplay:10.37,2013-09-09 19:37:00,
2013-09-09 15:38:00,79.8,63.7,30.20,South,176,4.3,8.1,58,0.00,CLR,,0.00,WeatherDisplay:10.37,2013-09-09 19:38:00,
2013-09-09 15:39:00,80.0,63.9,30.19,SSW,192,2.1,8.1,58,0.00,CLR,,0.00,WeatherDisplay:10.37,2013-09-09 19:39:00,
2013-09-09 15:40:00,79.5,63.4,30.19,SSW,192,0.0,0.0,58,0.00,CLR,,0.00,WeatherDisplay:10.37,2013-09-09 19:40:00,
2013-09-09 15:41:00,79.7,63.1,30.19,East,79,2.1,4.5,57,0.00,CLR,,0.00,WeatherDisplay:10.37,2013-09-09 19:41:00,
2013-09-09 15:42:00,80.0,63.4,30.19,SE,134,5.6,5.8,57,0.00,CLR,,0.00,WeatherDisplay:10.37,2013-09-09 19:42:00,
2013-09-09 15:43:00,79.4,62.8,30.19,ESE,109,5.8,8.1,57,0.00,CLR,,0.00,WeatherDisplay:10.37,2013-09-09 19:43:00,
2013-09-09 15:44:00,80.8,63.6,30.19,ESE,102,4.2,6.9,56,0.00,CLR,,0.00,WeatherDisplay:10.37,2013-09-09 19:44:00,
2013-09-09 15:45:00,81.0,63.8,30.19,ESE,114,4.9,6.9,56,0.00,CLR,,0.00,WeatherDisplay:10.37,2013-09-09 19:45:00,
2013-09-09 15:48:00,80.0,62.4,30.19,ESE,113,0.0,0.0,55,0.00,CLR,,0.00,WeatherDisplay:10.37,2013-09-09 19:48:00,
2013-09-09 15:49:00,80.4,62.8,30.19,ESE,102,4.4,10.4,55,0.00,CLR,,0.00,WeatherDisplay:10.37,2013-09-09 19:49:00,
2013-09-09 15:50:00,81.2,63.5,30.19,SE,133,4.9,10.4,55,0.00,CLR,,0.00,WeatherDisplay:10.37,2013-09-09 19:50:00,
2013-09-09 15:53:00,79.9,62.3,30.19,East,92,4.2,9.2,55,0.00,CLR,,0.00,WeatherDisplay:10.37,2013-09-09 19:53:00,
2013-09-09 15:54:00,81.3,64.1,30.19,ESE,117,0.5,4.6,56,0.00,CLR,,0.00,WeatherDisplay:10.37,2013-09-09 19:54:00,
2013-09-09 15:55:00,80.6,63.5,30.19,East,93,2.9,6.9,56,0.00,CLR,,0.00,WeatherDisplay:10.37,2013-09-09 19:55:00,
2013-09-09 15:57:00,80.7,63.5,30.19,NE,55,0.3,6.8,56,0.00,CLR,,0.00,WeatherDisplay:10.37,2013-09-09 19:57:00,
2013-09-09 15:58:00,80.4,63.3,30.19,East,79,0.2,8.1,56,0.00,CLR,,0.00,WeatherDisplay:10.37,2013-09-09 19:58:00,
2013-09-09 15:59:00,80.5,63.4,30.19,ENE,65,0.6,3.5,56,0.00,CLR,,0.00,WeatherDisplay:10.37,2013-09-09 19:59:00,
2013-09-09 16:00:00,81.9,64.7,30.19,ENE,65,0.1,3.5,56,0.00,CLR,,0.00,WeatherDisplay:10.37,2013-09-09 20:00:00,
2013-09-09 16:03:00,81.9,64.1,30.19,ENE,65,0.0,0.0,55,0.00,CLR,,0.00,WeatherDisplay:10.37,2013-09-09 20:03:00,
2013-09-09 16:04:00,81.3,63.1,30.19,ENE,65,0.0,0.0,54,0.00,CLR,,0.00,WeatherDisplay:10.37,2013-09-09 20:04:00,
2013-09-09 16:05:00,80.8,62.6,30.19,ENE,65,0.0,0.0,54,0.00,CLR,,0.00,WeatherDisplay:10.37,2013-09-09 20:05:00,
2013-09-09 16:08:00,81.7,64.0,30.19,SE,133,4.4,8.1,55,0.00,CLR,,0.00,WeatherDisplay:10.37,2013-09-09 20:08:00,
2013-09-09 16:09:00,81.3,63.6,30.19,SSE,168,5.1,8.1,55,0.00,CLR,,0.00,WeatherDisplay:10.37,2013-09-09 20:09:00,
2013-09-09 16:10:00,82.5,64.7,30.19,ESE,120,3.9,6.9,55,0.00,CLR,,0.00,WeatherDisplay:10.37,2013-09-09 20:10:00,
2013-09-09 16:13:00,81.2,63.5,30.19,ESE,103,7.1,9.2,55,0.00,CLR,,0.00,WeatherDisplay:10.37,2013-09-09 20:13:00,
2013-09-09 16:15:00,81.3,63.1,30.19,East,100,5.4,8.1,54,0.00,CLR,,0.00,WeatherDisplay:10.37,2013-09-09 20:15:00,
2013-09-09 16:16:00,80.8,63.1,30.19,East,100,6.1,8.1,55,0.00,CLR,,0.00,WeatherDisplay:10.37,2013-09-09 20:16:00,
2013-09-09 16:18:00,80.6,63.5,30.19,SE,128,0.3,6.9,56,0.00,CLR,,0.00,WeatherDisplay:10.37,2013-09-09 20:18:00,
2013-09-09 16:20:00,81.2,64.0,30.19,SE,126,0.0,5.8,56,0.00,CLR,,0.00,WeatherDisplay:10.37,2013-09-09 20:20:00,
2013-09-09 16:21:00,81.2,64.0,30.19,ESE,109,0.2,3.5,56,0.00,CLR,,0.00,WeatherDisplay:10.37,2013-09-09 20:21:00,
2013-09-09 16:23:00,80.8,63.1,30.19,ENE,68,0.8,4.6,55,0.00,CLR,,0.00,WeatherDisplay:10.37,2013-09-09 20:23:00,
2013-09-09 16:26:00,81.2,63.5,30.19,East,86,0.4,4.6,55,0.00,CLR,,0.00,WeatherDisplay:10.37,2013-09-09 20:26:00,
2013-09-09 16:27:00,81.6,64.4,30.19,East,86,0.0,0.0,56,0.00,CLR,,0.00,WeatherDisplay:10.37,2013-09-09 20:27:00,
2013-09-09 16:29:00,80.9,64.2,30.19,SE,133,2.2,6.2,57,0.00,CLR,,0.00,WeatherDisplay:10.37,2013-09-09 20:29:00,
2013-09-09 16:31:00,81.4,64.7,30.19,ESE,103,3.0,4.6,57,0.00,CLR,,0.00,WeatherDisplay:10.37,2013-09-09 20:31:00,
2013-09-09 16:32:00,79.7,63.1,30.18,SE,128,6.0,8.1,57,0.00,CLR,,0.00,WeatherDisplay:10.37,2013-09-09 20:32:00,
2013-09-09 16:33:00,80.1,63.5,30.18,ESE,112,0.0,6.9,57,0.00,CLR,,0.00,WeatherDisplay:10.37,2013-09-09 20:33:00,
2013-09-09 16:34:00,79.0,63.0,30.18,ESE,112,0.0,0.0,58,0.00,CLR,,0.00,WeatherDisplay:10.37,2013-09-09 20:34:00,
2013-09-09 16:36:00,80.1,64.0,30.18,ESE,112,0.0,0.0,58,0.00,CLR,,0.00,WeatherDisplay:10.37,2013-09-09 20:36:00,
2013-09-09 16:37:00,79.0,63.0,30.18,ESE,112,0.0,0.0,58,0.00,CLR,,0.00,WeatherDisplay:10.37,2013-09-09 20:37:00,
2013-09-09 16:39:00,79.9,63.3,30.18,ESE,121,2.1,7.6,57,0.00,CLR,,0.00,WeatherDisplay:10.37,2013-09-09 20:39:00,
2013-09-09 16:41:00,81.3,64.6,30.18,SSE,151,3.9,9.2,57,0.00,CLR,,0.00,WeatherDisplay:10.37,2013-09-09 20:41:00,
2013-09-09 16:42:00,80.3,63.7,30.18,ESE,114,5.8,10.4,57,0.00,CLR,,0.00,WeatherDisplay:10.37,2013-09-09 20:42:00,
2013-09-09 16:44:00,81.2,64.0,30.18,ENE,64,1.1,4.6,56,0.00,CLR,,0.00,WeatherDisplay:10.37,2013-09-09 20:44:00,
2013-09-09 16:46:00,81.3,64.1,30.17,SE,145,6.8,9.2,56,0.00,CLR,,0.00,WeatherDisplay:10.37,2013-09-09 20:46:00,
2013-09-09 16:47:00,81.8,64.6,30.17,SE,130,5.0,9.2,56,0.00,CLR,,0.00,WeatherDisplay:10.37,2013-09-09 20:47:00,
2013-09-09 16:49:00,82.0,64.2,30.18,ESE,121,7.7,10.4,55,0.00,CLR,,0.00,WeatherDisplay:10.37,2013-09-09 20:49:00,
2013-09-09 16:51:00,82.1,64.8,30.18,SE,130,1.6,9.2,56,0.00,CLR,,0.00,WeatherDisplay:10.37,2013-09-09 20:51:00,
2013-09-09 16:52:00,82.0,64.8,30.17,SSE,152,5.4,6.9,56,0.00,CLR,,0.00,WeatherDisplay:10.37,2013-09-09 20:52:00,
2013-09-09 16:54:00,81.4,64.2,30.17,ESE,110,6.5,10.4,56,0.00,CLR,,0.00,WeatherDisplay:10.37,2013-09-09 20:54:00,
2013-09-09 16:56:00,81.5,64.3,30.17,ESE,120,5.1,8.1,56,0.00,CLR,,0.00,WeatherDisplay:10.37,2013-09-09 20:56:00,
2013-09-09 16:59:00,80.6,63.5,30.17,East,80,0.0,6.9,56,0.00,CLR,,0.00,WeatherDisplay:10.37,2013-09-09 20:59:00,
2013-09-09 17:01:00,80.7,63.5,30.17,East,80,0.0,0.0,56,0.00,CLR,,0.00,WeatherDisplay:10.37,2013-09-09 21:01:00,
2013-09-09 17:02:00,81.3,64.1,30.17,East,80,0.0,0.0,56,0.00,CLR,,0.00,WeatherDisplay:10.37,2013-09-09 21:02:00,
2013-09-09 17:05:00,81.2,64.0,30.17,ENE,58,0.0,0.0,56,0.00,CLR,,0.00,WeatherDisplay:10.37,2013-09-09 21:05:00,
2013-09-09 17:06:00,81.6,64.4,30.17,East,79,5.9,8.1,56,0.00,CLR,,0.00,WeatherDisplay:10.37,2013-09-09 21:06:00,
2013-09-09 17:07:00,82.2,64.9,30.17,ESE,120,6.5,9.2,56,0.00,CLR,,0.00,WeatherDisplay:10.37,2013-09-09 21:07:00,
2013-09-09 17:10:00,80.2,63.1,30.17,SE,144,3.9,5.8,56,0.00,CLR,,0.00,WeatherDisplay:10.37,2013-09-09 21:10:00,
2013-09-09 17:11:00,81.6,64.4,30.17,SE,144,0.0,6.9,56,0.00,CLR,,0.00,WeatherDisplay:10.37,2013-09-09 21:11:00,
2013-09-09 17:12:00,81.4,64.7,30.17,SE,144,0.0,0.0,57,0.00,CLR,,0.00,WeatherDisplay:10.37,2013-09-09 21:12:00,
2013-09-09 17:13:00,80.9,64.2,30.17,SE,144,0.0,0.0,57,0.00,CLR,,0.00,WeatherDisplay:10.37,2013-09-09 21:13:00,
2013-09-09 17:15:00,81.5,64.3,30.18,East,83,5.9,9.2,56,0.00,CLR,,0.00,WeatherDisplay:10.37,2013-09-09 21:15:00,
2013-09-09 17:16:00,81.9,64.7,30.18,East,83,7.2,8.1,56,0.00,CLR,,0.00,WeatherDisplay:10.37,2013-09-09 21:16:00,
2013-09-09 17:17:00,81.3,64.1,30.18,ENE,72,4.3,8.1,56,0.00,CLR,,0.00,WeatherDisplay:10.37,2013-09-09 21:17:00,
2013-09-09 17:18:00,81.2,64.0,30.18,ENE,64,5.7,6.9,56,0.00,CLR,,0.00,WeatherDisplay:10.37,2013-09-09 21:18:00,
2013-09-09 17:21:00,81.4,64.7,30.18,SE,127,5.8,8.1,57,0.00,CLR,,0.00,WeatherDisplay:10.37,2013-09-09 21:21:00,
2013-09-09 17:23:00,80.6,64.0,30.18,East,89,2.8,5.8,57,0.00,CLR,,0.00,WeatherDisplay:10.37,2013-09-09 21:23:00,
2013-09-09 17:26:00,81.1,64.4,30.18,ENE,59,3.2,6.9,57,0.00,CLR,,0.00,WeatherDisplay:10.37,2013-09-09 21:26:00,
2013-09-09 17:28:00,80.1,64.0,30.18,East,93,3.7,4.6,58,0.00,CLR,,0.00,WeatherDisplay:10.37,2013-09-09 21:28:00,
2013-09-09 17:29:00,79.5,63.4,30.18,SSE,152,2.0,6.9,58,0.00,CLR,,0.00,WeatherDisplay:10.37,2013-09-09 21:29:00,
2013-09-09 17:31:00,79.7,63.6,30.18,SSE,152,0.1,3.5,58,0.00,CLR,,0.00,WeatherDisplay:10.37,2013-09-09 21:31:00,
2013-09-09 17:33:00,79.8,64.2,30.18,ESE,109,5.9,8.1,59,0.00,CLR,,0.00,WeatherDisplay:10.37,2013-09-09 21:33:00,
2013-09-09 17:34:00,80.5,64.9,30.18,East,100,5.0,8.1,59,0.00,CLR,,0.00,WeatherDisplay:10.37,2013-09-09 21:34:00,
2013-09-09 17:36:00,80.2,64.6,30.18,North,10,0.0,3.5,59,0.00,CLR,,0.00,WeatherDisplay:10.37,2013-09-09 21:36:00,
2013-09-09 17:39:00,79.5,64.4,30.18,ESE,109,1.0,4.6,60,0.00,CLR,,0.00,WeatherDisplay:10.37,2013-09-09 21:39:00,
2013-09-09 17:40:00,79.1,64.0,30.18,ESE,109,0.0,0.0,60,0.00,CLR,,0.00,WeatherDisplay:10.37,2013-09-09 21:40:00,
2013-09-09 17:41:00,80.0,64.9,30.18,ESE,109,0.0,0.0,60,0.00,CLR,,0.00,WeatherDisplay:10.37,2013-09-09 21:41:00,
2013-09-09 17:42:00,80.1,65.0,30.18,ESE,109,0.0,0.0,60,0.00,CLR,,0.00,WeatherDisplay:10.37,2013-09-09 21:42:00,
2013-09-09 17:44:00,80.5,64.9,30.18,NE,55,0.6,5.8,59,0.00,CLR,,0.00,WeatherDisplay:10.37,2013-09-09 21:44:00,
2013-09-09 17:45:00,81.4,65.7,30.18,ESE,103,1.2,4.6,59,0.00,CLR,,0.00,WeatherDisplay:10.37,2013-09-09 21:45:00,
2013-09-09 17:46:00,81.1,64.9,30.18,NE,45,2.1,5.8,58,0.00,CLR,,0.00,WeatherDisplay:10.37,2013-09-09 21:46:00,
2013-09-09 17:47:00,80.6,64.9,30.18,NE,45,0.4,5.8,59,0.00,CLR,,0.00,WeatherDisplay:10.37,2013-09-09 21:47:00,
2013-09-09 17:49:00,80.0,63.9,30.18,NE,45,0.0,2.9,58,0.00,CLR,,0.00,WeatherDisplay:10.37,2013-09-09 21:49:00,
2013-09-09 17:50:00,80.7,64.5,30.18,East,100,4.7,8.3,58,0.00,CLR,,0.00,WeatherDisplay:10.37,2013-09-09 21:50:00,
2013-09-09 17:51:00,80.3,64.2,30.18,ESE,104,3.7,9.2,58,0.00,CLR,,0.00,WeatherDisplay:10.37,2013-09-09 21:51:00,
2013-09-09 17:52:00,80.3,64.2,30.18,ESE,104,0.3,8.1,58,0.00,CLR,,0.00,WeatherDisplay:10.37,2013-09-09 21:52:00,
2013-09-09 17:54:00,79.9,63.8,30.18,East,88,0.0,5.8,58,0.00,CLR,,0.00,WeatherDisplay:10.37,2013-09-09 21:54:00,
2013-09-09 17:55:00,80.4,64.3,30.18,East,88,0.0,0.0,58,0.00,CLR,,0.00,WeatherDisplay:10.37,2013-09-09 21:55:00,
2013-09-09 17:56:00,80.2,64.1,30.18,NE,48,0.7,5.7,58,0.00,CLR,,0.00,WeatherDisplay:10.37,2013-09-09 21:56:00,
2013-09-09 17:57:00,81.1,64.9,30.18,NE,34,1.1,5.8,58,0.00,CLR,,0.00,WeatherDisplay:10.37,2013-09-09 21:57:00,
2013-09-09 17:59:00,79.8,63.7,30.18,NE,34,0.0,0.0,58,0.00,CLR,,0.00,WeatherDisplay:10.37,2013-09-09 21:59:00,
2013-09-09 18:01:00,80.8,65.1,30.18,ENE,72,1.0,5.5,59,0.00,CLR,,0.00,WeatherDisplay:10.37,2013-09-09 22:01:00,
2013-09-09 18:02:00,80.2,64.6,30.18,East,83,2.5,6.9,59,0.00,CLR,,0.00,WeatherDisplay:10.37,2013-09-09 22:02:00,
2013-09-09 18:04:00,80.3,64.7,30.18,East,85,2.8,6.9,59,0.00,CLR,,0.00,WeatherDisplay:10.37,2013-09-09 22:04:00,
2013-09-09 18:06:00,80.7,65.0,30.18,East,92,0.0,5.8,59,0.00,CLR,,0.00,WeatherDisplay:10.37,2013-09-09 22:06:00,
2013-09-09 18:07:00,79.7,64.1,30.18,ENE,75,0.2,4.2,59,0.00,CLR,,0.00,WeatherDisplay:10.37,2013-09-09 22:07:00,
2013-09-09 18:08:00,80.2,64.6,30.18,East,95,3.0,9.2,59,0.00,CLR,,0.00,WeatherDisplay:10.37,2013-09-09 22:08:00,
2013-09-09 18:09:00,79.2,63.6,30.18,ESE,114,2.1,6.9,59,0.00,CLR,,0.00,WeatherDisplay:10.37,2013-09-09 22:09:00,
2013-09-09 18:12:00,80.4,64.8,30.17,ENE,78,1.2,4.6,59,0.00,CLR,,0.00,WeatherDisplay:10.37,2013-09-09 22:12:00,
2013-09-09 18:13:00,80.1,65.0,30.17,ENE,78,0.0,0.0,60,0.00,CLR,,0.00,WeatherDisplay:10.37,2013-09-09 22:13:00,
2013-09-09 18:14:00,80.1,65.0,30.18,ENE,78,0.0,0.0,60,0.00,CLR,,0.00,WeatherDisplay:10.37,2013-09-09 22:14:00,
2013-09-09 18:17:00,79.7,64.6,30.17,ENE,78,0.0,0.0,60,0.00,CLR,,0.00,WeatherDisplay:10.37,2013-09-09 22:17:00,
2013-09-09 18:18:00,79.9,64.8,30.17,North,10,0.0,0.0,60,0.00,CLR,,0.00,WeatherDisplay:10.37,2013-09-09 22:18:00,
2013-09-09 18:19:00,80.1,65.0,30.17,North,10,0.0,0.0,60,0.00,CLR,,0.00,WeatherDisplay:10.37,2013-09-09 22:19:00,
2013-09-09 18:22:00,79.0,63.9,30.17,North,10,0.0,0.0,60,0.00,CLR,,0.00,WeatherDisplay:10.37,2013-09-09 22:22:00,
2013-09-09 18:23:00,79.0,63.9,30.17,North,10,0.0,0.0,60,0.00,CLR,,0.00,WeatherDisplay:10.37,2013-09-09 22:23:00,
2013-09-09 18:24:00,79.9,64.8,30.17,ENE,72,1.0,5.8,60,0.00,CLR,,0.00,WeatherDisplay:10.37,2013-09-09 22:24:00,
2013-09-09 18:25:00,79.1,64.5,30.17,ENE,72,1.0,5.8,61,0.00,CLR,,0.00,WeatherDisplay:10.37,2013-09-09 22:25:00,
2013-09-09 18:27:00,79.5,64.9,30.17,ENE,72,0.0,0.0,61,0.00,CLR,,0.00,WeatherDisplay:10.37,2013-09-09 22:27:00,
2013-09-09 18:28:00,78.2,63.6,30.17,ENE,72,0.0,0.0,61,0.00,CLR,,0.00,WeatherDisplay:10.37,2013-09-09 22:28:00,
2013-09-09 18:29:00,78.9,64.3,30.17,ESE,107,0.6,4.6,61,0.00,CLR,,0.00,WeatherDisplay:10.37,2013-09-09 22:29:00,
2013-09-09 18:30:00,77.9,63.4,30.17,ESE,107,0.0,4.6,61,0.00,CLR,,0.00,WeatherDisplay:10.37,2013-09-09 22:30:00,
2013-09-09 18:32:00,77.9,63.4,30.17,ESE,107,0.0,0.0,61,0.00,CLR,,0.00,WeatherDisplay:10.37,2013-09-09 22:32:00,
2013-09-09 18:33:00,77.9,63.4,30.17,ESE,107,0.0,2.5,61,0.00,CLR,,0.00,WeatherDisplay:10.37,2013-09-09 22:33:00,
2013-09-09 18:35:00,78.7,64.1,30.17,ESE,117,2.5,5.8,61,0.00,CLR,,0.00,WeatherDisplay:10.37,2013-09-09 22:35:00,
2013-09-09 18:36:00,78.2,64.1,30.17,East,85,1.2,4.6,62,0.00,CLR,,0.00,WeatherDisplay:10.37,2013-09-09 22:36:00,
2013-09-09 18:37:00,77.9,63.8,30.17,East,85,0.0,3.5,62,0.00,CLR,,0.00,WeatherDisplay:10.37,2013-09-09 22:37:00,
2013-09-09 18:38:00,77.2,63.2,30.17,ENE,75,1.7,3.5,62,0.00,CLR,,0.00,WeatherDisplay:10.37,2013-09-09 22:38:00,
2013-09-09 18:40:00,78.1,64.0,30.17,ESE,107,3.2,6.0,62,0.00,CLR,,0.00,WeatherDisplay:10.37,2013-09-09 22:40:00,
2013-09-09 18:42:00,78.1,64.0,30.17,East,79,0.0,0.0,62,0.00,CLR,,0.00,WeatherDisplay:10.37,2013-09-09 22:42:00,
2013-09-09 18:44:00,77.1,63.1,30.17,East,79,0.0,0.0,62,0.00,CLR,,0.00,WeatherDisplay:10.37,2013-09-09 22:44:00,
2013-09-09 18:45:00,79.1,65.4,30.17,ESE,109,1.8,4.6,63,0.00,CLR,,0.00,WeatherDisplay:10.37,2013-09-09 22:45:00,
2013-09-09 18:46:00,78.8,65.1,30.17,ESE,109,0.0,3.5,63,0.00,CLR,,0.00,WeatherDisplay:10.37,2013-09-09 22:46:00,
2013-09-09 18:47:00,76.9,63.3,30.17,ESE,109,0.0,0.0,63,0.00,CLR,,0.00,WeatherDisplay:10.37,2013-09-09 22:47:00,
2013-09-09 18:49:00,77.8,64.2,30.17,ESE,109,0.0,0.0,63,0.00,CLR,,0.00,WeatherDisplay:10.37,2013-09-09 22:49:00,
2013-09-09 18:50:00,78.4,64.8,30.17,ESE,104,2.1,4.6,63,0.00,CLR,,0.00,WeatherDisplay:10.37,2013-09-09 22:50:00,
2013-09-09 18:51:00,77.4,63.8,30.17,ESE,104,0.0,5.8,63,0.00,CLR,,0.00,WeatherDisplay:10.37,2013-09-09 22:51:00,
2013-09-09 18:53:00,77.7,64.5,30.17,East,92,3.3,6.9,64,0.00,CLR,,0.00,WeatherDisplay:10.37,2013-09-09 22:53:00,
2013-09-09 18:54:00,78.0,64.8,30.17,ENE,73,3.6,5.4,64,0.00,CLR,,0.00,WeatherDisplay:10.37,2013-09-09 22:54:00,
2013-09-09 18:55:00,78.5,65.3,30.17,East,97,2.3,5.8,64,0.00,CLR,,0.00,WeatherDisplay:10.37,2013-09-09 22:55:00,
2013-09-09 18:56:00,76.7,63.6,30.17,East,97,0.0,4.6,64,0.00,CLR,,0.00,WeatherDisplay:10.37,2013-09-09 22:56:00,
2013-09-09 18:58:00,77.4,64.3,30.17,East,86,0.3,5.8,64,0.00,CLR,,0.00,WeatherDisplay:10.37,2013-09-09 22:58:00,
2013-09-09 19:00:00,76.6,64.0,30.17,ENE,76,0.0,3.5,65,0.00,CLR,,0.00,WeatherDisplay:10.37,2013-09-09 23:00:00,
2013-09-09 19:01:00,76.8,64.1,30.17,ENE,76,0.0,3.5,65,0.00,CLR,,0.00,WeatherDisplay:10.37,2013-09-09 23:01:00,
2013-09-09 19:03:00,76.9,64.2,30.17,ENE,76,0.0,0.0,65,0.00,CLR,,0.00,WeatherDisplay:10.37,2013-09-09 23:03:00,
2013-09-09 19:04:00,76.9,64.7,30.17,ENE,76,0.0,0.0,66,0.00,CLR,,0.00,WeatherDisplay:10.37,2013-09-09 23:04:00,
2013-09-09 19:05:00,77.0,64.8,30.17,ENE,76,0.0,0.0,66,0.00,CLR,,0.00,WeatherDisplay:10.37,2013-09-09 23:05:00,
2013-09-09 19:06:00,77.0,64.8,30.17,East,83,1.1,4.6,66,0.00,CLR,,0.00,WeatherDisplay:10.37,2013-09-09 23:06:00,
2013-09-09 19:08:00,76.8,64.6,30.17,East,83,0.0,0.0,66,0.00,CLR,,0.00,WeatherDisplay:10.37,2013-09-09 23:08:00,
2013-09-09 19:09:00,76.8,65.0,30.17,East,83,0.0,0.0,67,0.00,CLR,,0.00,WeatherDisplay:10.37,2013-09-09 23:09:00,
2013-09-09 19:10:00,76.5,64.7,30.17,East,83,0.0,0.0,67,0.00,CLR,,0.00,WeatherDisplay:10.37,2013-09-09 23:10:00,
2013-09-09 19:11:00,76.5,65.1,30.17,East,83,0.0,0.0,68,0.00,CLR,,0.00,WeatherDisplay:10.37,2013-09-09 23:11:00,
2013-09-09 19:12:00,77.0,65.6,30.17,East,83,0.0,0.0,68,0.00,CLR,,0.00,WeatherDisplay:10.37,2013-09-09 23:12:00,
2013-09-09 19:13:00,76.5,65.1,30.17,East,83,0.0,0.0,68,0.00,CLR,,0.00,WeatherDisplay:10.37,2013-09-09 23:13:00,
2013-09-09 19:14:00,76.4,65.1,30.17,East,83,0.0,0.0,68,0.00,CLR,,0.00,WeatherDisplay:10.37,2013-09-09 23:14:00,
2013-09-09 19:15:00,76.2,64.9,30.17,East,83,0.0,0.0,68,0.00,CLR,,0.00,WeatherDisplay:10.37,2013-09-09 23:15:00,
2013-09-09 19:16:00,76.4,65.1,30.18,East,83,0.0,0.0,68,0.00,CLR,,0.00,WeatherDisplay:10.37,2013-09-09 23:16:00,
2013-09-09 19:17:00,76.1,65.2,30.18,East,83,0.0,0.0,69,0.00,CLR,,0.00,WeatherDisplay:10.37,2013-09-09 23:17:00,
2013-09-09 19:18:00,76.0,65.1,30.18,East,83,0.0,0.0,69,0.00,CLR,,0.00,WeatherDisplay:10.37,2013-09-09 23:18:00,
2013-09-09 19:20:00,76.0,65.1,30.18,East,83,0.0,0.0,69,0.00,CLR,,0.00,WeatherDisplay:10.37,2013-09-09 23:20:00,
2013-09-09 19:21:00,76.1,65.2,30.18,East,83,0.0,0.0,69,0.00,CLR,,0.00,WeatherDisplay:10.37,2013-09-09 23:21:00,
2013-09-09 19:22:00,76.2,65.7,30.17,East,83,0.0,0.0,70,0.00,CLR,,0.00,WeatherDisplay:10.37,2013-09-09 23:22:00,
2013-09-09 19:23:00,76.2,65.7,30.17,East,83,0.0,0.0,70,0.00,CLR,,0.00,WeatherDisplay:10.37,2013-09-09 23:23:00,
2013-09-09 19:24:00,76.2,65.7,30.17,East,83,0.0,0.0,70,0.00,CLR,,0.00,WeatherDisplay:10.37,2013-09-09 23:24:00,
2013-09-09 19:25:00,75.9,65.8,30.17,East,83,0.0,0.0,71,0.00,CLR,,0.00,WeatherDisplay:10.37,2013-09-09 23:25:00,
2013-09-09 19:26:00,76.0,65.9,30.18,East,83,0.0,0.0,71,0.00,CLR,,0.00,WeatherDisplay:10.37,2013-09-09 23:26:00,
2013-09-09 19:28:00,76.3,66.2,30.18,East,83,0.0,0.0,71,0.00,CLR,,0.00,WeatherDisplay:10.37,2013-09-09 23:28:00,
2013-09-09 19:29:00,75.8,65.7,30.18,East,83,0.0,0.0,71,0.00,CLR,,0.00,WeatherDisplay:10.37,2013-09-09 23:29:00,
2013-09-09 19:31:00,75.7,66.0,30.18,East,83,0.0,0.0,72,0.00,CLR,,0.00,WeatherDisplay:10.37,2013-09-09 23:31:00,
2013-09-09 19:33:00,76.1,66.4,30.18,East,83,0.0,0.0,72,0.00,CLR,,0.00,WeatherDisplay:10.37,2013-09-09 23:33:00,
2013-09-09 19:34:00,75.9,66.2,30.18,East,83,0.0,0.0,72,0.00,CLR,,0.00,WeatherDisplay:10.37,2013-09-09 23:34:00,
2013-09-09 19:36:00,76.0,66.3,30.18,East,83,0.0,0.0,72,0.00,CLR,,0.00,WeatherDisplay:10.37,2013-09-09 23:36:00,
2013-09-09 19:37:00,75.9,66.6,30.18,East,83,0.0,0.0,73,0.00,CLR,,0.00,WeatherDisplay:10.37,2013-09-09 23:37:00,
2013-09-09 19:39:00,76.0,66.7,30.18,East,83,0.0,0.0,73,0.00,CLR,,0.00,WeatherDisplay:10.37,2013-09-09 23:39:00,
2013-09-09 19:41:00,75.7,66.4,30.18,East,83,0.0,0.0,73,0.00,CLR,,0.00,WeatherDisplay:10.37,2013-09-09 23:41:00,
2013-09-09 19:42:00,76.0,67.1,30.18,East,83,0.0,0.0,74,0.00,CLR,,0.00,WeatherDisplay:10.37,2013-09-09 23:42:00,
2013-09-09 19:43:00,75.8,66.9,30.18,East,83,0.0,0.0,74,0.00,CLR,,0.00,WeatherDisplay:10.37,2013-09-09 23:43:00,
2013-09-09 19:44:00,75.9,67.0,30.18,East,83,0.0,0.0,74,0.00,CLR,,0.00,WeatherDisplay:10.37,2013-09-09 23:44:00,
2013-09-09 19:45:00,75.7,66.8,30.18,East,83,0.0,0.0,74,0.00,CLR,,0.00,WeatherDisplay:10.37,2013-09-09 23:45:00,
2013-09-09 19:46:00,75.5,66.6,30.18,East,83,0.0,0.0,74,0.00,CLR,,0.00,WeatherDisplay:10.37,2013-09-09 23:46:00,
2013-09-09 19:47:00,75.4,66.5,30.18,East,83,0.0,0.0,74,0.00,CLR,,0.00,WeatherDisplay:10.37,2013-09-09 23:47:00,
2013-09-09 19:48:00,75.8,67.3,30.18,East,83,0.0,0.0,75,0.00,CLR,,0.00,WeatherDisplay:10.37,2013-09-09 23:48:00,
2013-09-09 19:49:00,75.3,66.8,30.18,East,83,0.0,0.0,75,0.00,CLR,,0.00,WeatherDisplay:10.37,2013-09-09 23:49:00,
2013-09-09 19:50:00,75.1,66.6,30.18,East,83,0.0,0.0,75,0.00,CLR,,0.00,WeatherDisplay:10.37,2013-09-09 23:50:00,
2013-09-09 19:51:00,75.1,66.6,30.18,East,83,0.0,0.0,75,0.00,CLR,,0.00,WeatherDisplay:10.37,2013-09-09 23:51:00,
2013-09-09 19:52:00,74.8,66.7,30.18,East,83,0.0,0.0,76,0.00,CLR,,0.00,WeatherDisplay:10.37,2013-09-09 23:52:00,
2013-09-09 19:54:00,75.0,66.9,30.18,East,83,0.0,0.0,76,0.00,CLR,,0.00,WeatherDisplay:10.37,2013-09-09 23:54:00,
2013-09-09 19:55:00,75.1,67.0,30.18,East,83,0.0,0.0,76,0.00,CLR,,0.00,WeatherDisplay:10.37,2013-09-09 23:55:00,
2013-09-09 19:56:00,74.8,66.7,30.18,East,83,0.0,0.0,76,0.00,CLR,,0.00,WeatherDisplay:10.37,2013-09-09 23:56:00,
2013-09-09 19:57:00,74.8,66.7,30.18,East,83,0.0,0.0,76,0.00,CLR,,0.00,WeatherDisplay:10.37,2013-09-09 23:57:00,
2013-09-09 19:59:00,74.3,66.6,30.18,East,83,0.0,0.0,77,0.00,CLR,,0.00,WeatherDisplay:10.37,2013-09-09 23:59:00,
2013-09-09 20:00:00,74.3,66.6,30.18,East,83,0.0,0.0,77,0.00,CLR,,0.00,WeatherDisplay:10.37,2013-09-10 00:00:00,
2013-09-09 20:02:00,74.6,66.9,30.18,East,83,0.0,0.0,77,0.00,CLR,,0.00,WeatherDisplay:10.37,2013-09-10 00:02:00,
2013-09-09 20:03:00,74.3,66.6,30.18,East,83,0.0,0.0,77,0.00,CLR,,0.00,WeatherDisplay:10.37,2013-09-10 00:03:00,
2013-09-09 20:05:00,74.3,67.0,30.19,East,83,0.0,0.0,78,0.00,CLR,,0.00,WeatherDisplay:10.37,2013-09-10 00:05:00,
2013-09-09 20:07:00,74.2,66.9,30.18,East,83,0.0,0.0,78,0.00,CLR,,0.00,WeatherDisplay:10.37,2013-09-10 00:07:00,
2013-09-09 20:08:00,74.2,67.3,30.18,East,83,0.0,0.0,79,0.00,CLR,,0.00,WeatherDisplay:10.37,2013-09-10 00:08:00,
2013-09-09 20:09:00,74.2,67.3,30.18,East,83,0.0,0.0,79,0.00,CLR,,0.00,WeatherDisplay:10.37,2013-09-10 00:09:00,
2013-09-09 20:10:00,74.2,67.3,30.18,East,83,0.0,0.0,79,0.00,CLR,,0.00,WeatherDisplay:10.37,2013-09-10 00:10:00,
2013-09-09 20:11:00,74.1,67.2,30.18,East,83,0.0,0.0,79,0.00,CLR,,0.00,WeatherDisplay:10.37,2013-09-10 00:11:00,
2013-09-09 20:12:00,74.2,67.3,30.18,East,83,0.0,0.0,79,0.00,CLR,,0.00,WeatherDisplay:10.37,2013-09-10 00:12:00,
2013-09-09 20:13:00,74.1,67.5,30.18,East,83,0.0,0.0,80,0.00,CLR,,0.00,WeatherDisplay:10.37,2013-09-10 00:13:00,
2013-09-09 20:15:00,74.2,67.6,30.18,East,83,0.0,0.0,80,0.00,CLR,,0.00,WeatherDisplay:10.37,2013-09-10 00:15:00,
2013-09-09 20:17:00,74.1,67.5,30.18,East,83,0.0,0.0,80,0.00,CLR,,0.00,WeatherDisplay:10.37,2013-09-10 00:17:00,
2013-09-09 20:18:00,74.1,67.5,30.18,East,83,0.0,0.0,80,0.00,CLR,,0.00,WeatherDisplay:10.37,2013-09-10 00:18:00,
2013-09-09 20:19:00,74.1,67.5,30.18,East,83,0.0,0.0,80,0.00,CLR,,0.00,WeatherDisplay:10.37,2013-09-10 00:19:00,
2013-09-09 20:20:00,74.1,67.5,30.18,East,83,0.0,0.0,80,0.00,CLR,,0.00,WeatherDisplay:10.37,2013-09-10 00:20:00,
2013-09-09 20:23:00,74.1,67.9,30.18,East,83,0.0,0.0,81,0.00,CLR,,0.00,WeatherDisplay:10.37,2013-09-10 00:23:00,
2013-09-09 20:24:00,74.1,67.9,30.18,East,83,0.0,0.0,81,0.00,CLR,,0.00,WeatherDisplay:10.37,2013-09-10 00:24:00,
2013-09-09 20:25:00,74.1,67.9,30.18,East,83,0.0,0.0,81,0.00,CLR,,0.00,WeatherDisplay:10.37,2013-09-10 00:25:00,
2013-09-09 20:26:00,74.1,67.9,30.18,East,83,0.0,0.0,81,0.00,CLR,,0.00,WeatherDisplay:10.37,2013-09-10 00:26:00,
2013-09-09 20:27:00,74.1,68.3,30.18,East,83,0.0,0.0,82,0.00,CLR,,0.00,WeatherDisplay:10.37,2013-09-10 00:27:00,
2013-09-09 20:29:00,74.0,68.2,30.19,East,83,0.0,0.0,82,0.00,CLR,,0.00,WeatherDisplay:10.37,2013-09-10 00:29:00,
2013-09-09 20:30:00,74.1,68.3,30.19,East,83,0.0,0.0,82,0.00,CLR,,0.00,WeatherDisplay:10.37,2013-09-10 00:30:00,
2013-09-09 20:32:00,74.1,68.3,30.19,East,83,0.0,0.0,82,0.00,CLR,,0.00,WeatherDisplay:10.37,2013-09-10 00:32:00,
2013-09-09 20:33:00,74.1,68.3,30.19,East,83,0.0,0.0,82,0.00,CLR,,0.00,WeatherDisplay:10.37,2013-09-10 00:33:00,
2013-09-09 20:34:00,73.6,67.8,30.19,East,83,0.0,0.0,82,0.00,CLR,,0.00,WeatherDisplay:10.37,2013-09-10 00:34:00,
2013-09-09 20:35:00,73.8,68.0,30.19,East,83,0.0,0.0,82,0.00,CLR,,0.00,WeatherDisplay:10.37,2013-09-10 00:35:00,
2013-09-09 20:37:00,74.1,68.3,30.19,East,83,0.0,0.0,82,0.00,CLR,,0.00,WeatherDisplay:10.37,2013-09-10 00:37:00,
2013-09-09 20:38:00,74.1,68.3,30.19,East,83,0.0,0.0,82,0.00,CLR,,0.00,WeatherDisplay:10.37,2013-09-10 00:38:00,
2013-09-09 20:39:00,73.7,67.9,30.19,East,83,0.0,0.0,82,0.00,CLR,,0.00,WeatherDisplay:10.37,2013-09-10 00:39:00,
2013-09-09 20:40:00,73.8,68.3,30.19,East,83,0.0,0.0,83,0.00,CLR,,0.00,WeatherDisplay:10.37,2013-09-10 00:40:00,
2013-09-09 20:43:00,73.8,68.3,30.19,East,83,0.0,0.0,83,0.00,CLR,,0.00,WeatherDisplay:10.37,2013-09-10 00:43:00,
2013-09-09 20:44:00,73.8,68.3,30.19,East,83,0.0,0.0,83,0.00,CLR,,0.00,WeatherDisplay:10.37,2013-09-10 00:44:00,
2013-09-09 20:45:00,73.7,68.2,30.19,East,83,0.0,0.0,83,0.00,CLR,,0.00,WeatherDisplay:10.37,2013-09-10 00:45:00,
2013-09-09 20:48:00,73.6,68.1,30.19,East,83,0.0,0.0,83,0.00,CLR,,0.00,WeatherDisplay:10.37,2013-09-10 00:48:00,
2013-09-09 20:49:00,73.7,68.2,30.19,East,83,0.0,0.0,83,0.00,CLR,,0.00,WeatherDisplay:10.37,2013-09-10 00:49:00,
2013-09-09 20:50:00,73.8,68.3,30.19,East,83,0.0,0.0,83,0.00,CLR,,0.00,WeatherDisplay:10.37,2013-09-10 00:50:00,
2013-09-09 20:51:00,73.9,68.4,30.19,East,83,0.0,0.0,83,0.00,CLR,,0.00,WeatherDisplay:10.37,2013-09-10 00:51:00,
2013-09-09 20:53:00,73.6,68.1,30.19,East,83,0.0,0.0,83,0.00,CLR,,0.00,WeatherDisplay:10.37,2013-09-10 00:53:00,
2013-09-09 20:54:00,73.8,68.3,30.19,East,83,0.0,0.0,83,0.00,CLR,,0.00,WeatherDisplay:10.37,2013-09-10 00:54:00,
2013-09-09 20:55:00,73.6,68.1,30.19,East,83,0.0,0.0,83,0.00,CLR,,0.00,WeatherDisplay:10.37,2013-09-10 00:55:00,
2013-09-09 20:56:00,73.7,68.2,30.19,East,83,0.0,0.0,83,0.00,CLR,,0.00,WeatherDisplay:10.37,2013-09-10 00:56:00,
2013-09-09 20:58:00,73.6,68.1,30.19,East,83,0.0,0.0,83,0.00,CLR,,0.00,WeatherDisplay:10.37,2013-09-10 00:58:00,
2013-09-09 20:59:00,73.2,67.7,30.19,East,83,0.0,0.0,83,0.00,CLR,,0.00,WeatherDisplay:10.37,2013-09-10 00:59:00,
2013-09-09 21:01:00,73.8,68.7,30.19,East,83,0.0,0.0,84,0.00,CLR,,0.00,WeatherDisplay:10.37,2013-09-10 01:01:00,
2013-09-09 21:03:00,73.9,68.8,30.19,East,83,0.0,0.0,84,0.00,CLR,,0.00,WeatherDisplay:10.37,2013-09-10 01:03:00,
2013-09-09 21:04:00,73.7,68.6,30.19,East,83,0.0,0.0,84,0.00,CLR,,0.00,WeatherDisplay:10.37,2013-09-10 01:04:00,
2013-09-09 21:06:00,73.6,68.5,30.19,East,83,0.0,0.0,84,0.00,CLR,,0.00,WeatherDisplay:10.37,2013-09-10 01:06:00,
2013-09-09 21:07:00,73.7,68.6,30.19,East,83,0.0,0.0,84,0.00,CLR,,0.00,WeatherDisplay:10.37,2013-09-10 01:07:00,
2013-09-09 21:08:00,73.6,68.5,30.19,East,83,0.0,0.0,84,0.00,CLR,,0.00,WeatherDisplay:10.37,2013-09-10 01:08:00,
2013-09-09 21:09:00,73.8,68.7,30.19,East,83,0.0,0.0,84,0.00,CLR,,0.00,WeatherDisplay:10.37,2013-09-10 01:09:00,
2013-09-09 21:10:00,73.7,68.6,30.19,East,83,0.0,0.0,84,0.00,CLR,,0.00,WeatherDisplay:10.37,2013-09-10 01:10:00,
2013-09-09 21:11:00,73.7,68.2,30.19,East,83,0.0,0.0,83,0.00,CLR,,0.00,WeatherDisplay:10.37,2013-09-10 01:11:00,
2013-09-09 21:12:00,73.8,68.3,30.19,East,83,0.0,0.0,83,0.00,CLR,,0.00,WeatherDisplay:10.37,2013-09-10 01:12:00,
2013-09-09 21:14:00,73.7,68.2,30.19,East,83,0.0,0.0,83,0.00,CLR,,0.00,WeatherDisplay:10.37,2013-09-10 01:14:00,
2013-09-09 21:15:00,73.6,68.1,30.19,East,83,0.0,0.0,83,0.00,CLR,,0.00,WeatherDisplay:10.37,2013-09-10 01:15:00,
2013-09-09 21:16:00,73.8,68.3,30.19,East,83,0.0,0.0,83,0.00,CLR,,0.00,WeatherDisplay:10.37,2013-09-10 01:16:00,
2013-09-09 21:17:00,73.8,68.3,30.19,East,83,0.0,0.0,83,0.00,CLR,,0.00,WeatherDisplay:10.37,2013-09-10 01:17:00,
2013-09-09 21:19:00,73.5,68.0,30.19,East,83,0.0,0.0,83,0.00,CLR,,0.00,WeatherDisplay:10.37,2013-09-10 01:19:00,
2013-09-09 21:20:00,73.8,68.3,30.19,East,83,0.0,0.0,83,0.00,CLR,,0.00,WeatherDisplay:10.37,2013-09-10 01:20:00,
2013-09-09 21:21:00,73.6,68.1,30.19,East,83,0.0,0.0,83,0.00,CLR,,0.00,WeatherDisplay:10.37,2013-09-10 01:21:00,
2013-09-09 21:23:00,73.9,68.4,30.19,East,83,0.0,0.0,83,0.00,CLR,,0.00,WeatherDisplay:10.37,2013-09-10 01:23:00,
2013-09-09 21:24:00,73.6,68.1,30.19,East,83,0.0,0.0,83,0.00,CLR,,0.00,WeatherDisplay:10.37,2013-09-10 01:24:00,
2013-09-09 21:25:00,73.7,68.2,30.19,East,83,0.0,0.0,83,0.00,CLR,,0.00,WeatherDisplay:10.37,2013-09-10 01:25:00,
2013-09-09 21:26:00,73.5,68.0,30.19,East,83,0.0,0.0,83,0.00,CLR,,0.00,WeatherDisplay:10.37,2013-09-10 01:26:00,
2013-09-09 21:29:00,73.4,68.3,30.19,East,83,0.0,0.0,84,0.00,CLR,,0.00,WeatherDisplay:10.37,2013-09-10 01:29:00,
2013-09-09 21:30:00,73.3,68.2,30.19,East,83,0.0,0.0,84,0.00,CLR,,0.00,WeatherDisplay:10.37,2013-09-10 01:30:00,
2013-09-09 21:31:00,73.6,68.5,30.19,East,83,0.0,0.0,84,0.00,CLR,,0.00,WeatherDisplay:10.37,2013-09-10 01:31:00,
2013-09-09 21:32:00,73.5,68.4,30.19,East,83,0.0,0.0,84,0.00,CLR,,0.00,WeatherDisplay:10.37,2013-09-10 01:32:00,
2013-09-09 21:34:00,73.5,68.4,30.19,East,83,0.0,0.0,84,0.00,CLR,,0.00,WeatherDisplay:10.37,2013-09-10 01:34:00,
2013-09-09 21:35:00,73.4,68.3,30.20,East,83,0.0,0.0,84,0.00,CLR,,0.00,WeatherDisplay:10.37,2013-09-10 01:35:00,
2013-09-09 21:36:00,73.7,68.6,30.20,East,83,0.0,0.0,84,0.00,CLR,,0.00,WeatherDisplay:10.37,2013-09-10 01:36:00,
2013-09-09 21:37:00,73.4,68.3,30.20,East,83,0.0,0.0,84,0.00,CLR,,0.00,WeatherDisplay:10.37,2013-09-10 01:37:00,
2013-09-09 21:39:00,73.6,68.5,30.20,East,83,0.0,0.0,84,0.00,CLR,,0.00,WeatherDisplay:10.37,2013-09-10 01:39:00,
2013-09-09 21:40:00,73.4,68.3,30.20,East,83,0.0,0.0,84,0.00,CLR,,0.00,WeatherDisplay:10.37,2013-09-10 01:40:00,
2013-09-09 21:41:00,73.4,68.3,30.20,East,83,0.0,0.0,84,0.00,CLR,,0.00,WeatherDisplay:10.37,2013-09-10 01:41:00,
2013-09-09 21:42:00,73.2,68.1,30.20,East,83,0.0,0.0,84,0.00,CLR,,0.00,WeatherDisplay:10.37,2013-09-10 01:42:00,
2013-09-09 21:43:00,73.5,68.4,30.20,East,83,0.0,0.0,84,0.00,CLR,,0.00,WeatherDisplay:10.37,2013-09-10 01:43:00,
2013-09-09 21:45:00,73.4,68.3,30.20,East,83,0.0,0.0,84,0.00,CLR,,0.00,WeatherDisplay:10.37,2013-09-10 01:45:00,
2013-09-09 21:46:00,73.3,68.2,30.20,East,83,0.0,0.0,84,0.00,CLR,,0.00,WeatherDisplay:10.37,2013-09-10 01:46:00,
2013-09-09 21:47:00,73.2,68.1,30.20,East,83,0.0,0.0,84,0.00,CLR,,0.00,WeatherDisplay:10.37,2013-09-10 01:47:00,
2013-09-09 21:50:00,73.1,68.0,30.20,NNE,16,0.0,0.0,84,0.00,CLR,,0.00,WeatherDisplay:10.37,2013-09-10 01:50:00,
2013-09-09 21:51:00,73.3,68.2,30.20,NNE,16,0.0,0.0,84,0.00,CLR,,0.00,WeatherDisplay:10.37,2013-09-10 01:51:00,
2013-09-09 21:52:00,73.1,68.0,30.20,NNE,16,0.0,0.0,84,0.00,CLR,,0.00,WeatherDisplay:10.37,2013-09-10 01:52:00,
2013-09-09 21:53:00,73.2,68.1,30.20,NNE,16,0.0,0.0,84,0.00,CLR,,0.00,WeatherDisplay:10.37,2013-09-10 01:53:00,
2013-09-09 21:56:00,73.2,68.1,30.20,NNE,16,0.0,0.0,84,0.00,CLR,,0.00,WeatherDisplay:10.37,2013-09-10 01:56:00,
2013-09-09 21:57:00,73.2,68.1,30.20,NNE,16,0.0,0.0,84,0.00,CLR,,0.00,WeatherDisplay:10.37,2013-09-10 01:57:00,
2013-09-09 21:58:00,72.9,68.1,30.20,NNE,16,0.0,0.0,85,0.00,CLR,,0.00,WeatherDisplay:10.37,2013-09-10 01:58:00,
2013-09-09 21:59:00,73.2,68.4,30.20,NNE,16,0.0,0.0,85,0.00,CLR,,0.00,WeatherDisplay:10.37,2013-09-10 01:59:00,
2013-09-09 22:01:00,73.0,68.2,30.21,NNE,16,0.0,0.0,85,0.00,CLR,,0.00,WeatherDisplay:10.37,2013-09-10 02:01:00,
2013-09-09 22:02:00,73.0,68.2,30.21,NNE,16,0.0,0.0,85,0.00,CLR,,0.00,WeatherDisplay:10.37,2013-09-10 02:02:00,
2013-09-09 22:04:00,73.0,68.2,30.21,NNE,16,0.0,0.0,85,0.00,CLR,,0.00,WeatherDisplay:10.37,2013-09-10 02:04:00,
2013-09-09 22:06:00,73.2,68.4,30.21,NNE,16,0.0,0.0,85,0.00,CLR,,0.00,WeatherDisplay:10.37,2013-09-10 02:06:00,
2013-09-09 22:07:00,72.8,68.0,30.21,NNE,16,0.0,0.0,85,0.00,CLR,,0.00,WeatherDisplay:10.37,2013-09-10 02:07:00,
2013-09-09 22:08:00,72.7,67.9,30.21,NNE,16,0.0,0.0,85,0.00,CLR,,0.00,WeatherDisplay:10.37,2013-09-10 02:08:00,
2013-09-09 22:09:00,72.8,68.0,30.21,NNE,16,0.0,0.0,85,0.00,CLR,,0.00,WeatherDisplay:10.37,2013-09-10 02:09:00,
2013-09-09 22:11:00,72.7,67.9,30.21,NNE,16,0.0,0.0,85,0.00,CLR,,0.00,WeatherDisplay:10.37,2013-09-10 02:11:00,
2013-09-09 22:12:00,72.6,68.2,30.21,NNE,16,0.0,0.0,86,0.00,CLR,,0.00,WeatherDisplay:10.37,2013-09-10 02:12:00,
2013-09-09 22:13:00,72.7,68.3,30.21,NNE,16,0.0,0.0,86,0.00,CLR,,0.00,WeatherDisplay:10.37,2013-09-10 02:13:00,
2013-09-09 22:14:00,72.6,68.2,30.21,NNE,16,0.0,0.0,86,0.00,CLR,,0.00,WeatherDisplay:10.37,2013-09-10 02:14:00,
2013-09-09 22:15:00,72.5,68.1,30.21,NNE,16,0.0,0.0,86,0.00,CLR,,0.00,WeatherDisplay:10.37,2013-09-10 02:15:00,
2013-09-09 22:16:00,72.4,68.0,30.21,NNE,16,0.0,0.0,86,0.00,CLR,,0.00,WeatherDisplay:10.37,2013-09-10 02:16:00,
2013-09-09 22:17:00,72.8,68.4,30.21,NNE,16,0.0,0.0,86,0.00,CLR,,0.00,WeatherDisplay:10.37,2013-09-10 02:17:00,
2013-09-09 22:18:00,72.9,68.5,30.21,NNE,16,0.0,0.0,86,0.00,CLR,,0.00,WeatherDisplay:10.37,2013-09-10 02:18:00,
2013-09-09 22:20:00,72.9,68.5,30.21,NNE,16,0.0,0.0,86,0.00,CLR,,0.00,WeatherDisplay:10.37,2013-09-10 02:20:00,
2013-09-09 22:22:00,72.8,68.4,30.21,NNE,16,0.0,0.0,86,0.00,CLR,,0.00,WeatherDisplay:10.37,2013-09-10 02:22:00,
2013-09-09 22:24:00,72.5,68.1,30.21,NNE,16,0.0,0.0,86,0.00,CLR,,0.00,WeatherDisplay:10.37,2013-09-10 02:24:00,
2013-09-09 22:25:00,72.7,68.3,30.21,NNE,16,0.0,0.0,86,0.00,CLR,,0.00,WeatherDisplay:10.37,2013-09-10 02:25:00,
2013-09-09 22:26:00,72.5,68.1,30.21,NNE,16,0.0,0.0,86,0.00,CLR,,0.00,WeatherDisplay:10.37,2013-09-10 02:26:00,
2013-09-09 22:27:00,72.8,68.4,30.22,NNE,16,0.0,0.0,86,0.00,CLR,,0.00,WeatherDisplay:10.37,2013-09-10 02:27:00,
2013-09-09 22:28:00,72.7,68.3,30.21,NNE,16,0.0,0.0,86,0.00,CLR,,0.00,WeatherDisplay:10.37,2013-09-10 02:28:00,
2013-09-09 22:29:00,72.8,68.4,30.22,NNE,16,0.0,0.0,86,0.00,CLR,,0.00,WeatherDisplay:10.37,2013-09-10 02:29:00,
2013-09-09 22:31:00,72.6,68.2,30.21,NNE,16,0.0,0.0,86,0.00,CLR,,0.00,WeatherDisplay:10.37,2013-09-10 02:31:00,
2013-09-09 22:32:00,72.7,68.3,30.21,NNE,16,0.0,0.0,86,0.00,CLR,,0.00,WeatherDisplay:10.37,2013-09-10 02:32:00,
2013-09-09 22:33:00,72.9,68.5,30.21,NNE,16,0.0,0.0,86,0.00,CLR,,0.00,WeatherDisplay:10.37,2013-09-10 02:33:00,
2013-09-09 22:35:00,72.8,68.4,30.22,NNE,16,0.0,0.0,86,0.00,CLR,,0.00,WeatherDisplay:10.37,2013-09-10 02:35:00,
2013-09-09 22:36:00,72.5,68.1,30.22,NNE,16,0.0,0.0,86,0.00,CLR,,0.00,WeatherDisplay:10.37,2013-09-10 02:36:00,
2013-09-09 22:37:00,72.6,68.2,30.22,NNE,16,0.0,0.0,86,0.00,CLR,,0.00,WeatherDisplay:10.37,2013-09-10 02:37:00,
2013-09-09 22:38:00,72.7,68.3,30.22,NNE,16,0.0,0.0,86,0.00,CLR,,0.00,WeatherDisplay:10.37,2013-09-10 02:38:00,
2013-09-09 22:41:00,72.5,68.4,30.22,NNE,16,0.0,0.0,87,0.00,CLR,,0.00,WeatherDisplay:10.37,2013-09-10 02:41:00,
2013-09-09 22:42:00,72.3,68.2,30.22,NNE,16,0.0,0.0,87,0.00,CLR,,0.00,WeatherDisplay:10.37,2013-09-10 02:42:00,
2013-09-09 22:43:00,72.1,68.0,30.22,NNE,16,0.0,0.0,87,0.00,CLR,,0.00,WeatherDisplay:10.37,2013-09-10 02:43:00,
2013-09-09 22:46:00,72.6,68.5,30.22,NNE,16,0.0,0.0,87,0.00,CLR,,0.00,WeatherDisplay:10.37,2013-09-10 02:46:00,
2013-09-09 22:47:00,71.9,67.8,30.22,NNE,16,0.0,0.0,87,0.00,CLR,,0.00,WeatherDisplay:10.37,2013-09-10 02:47:00,
2013-09-09 22:48:00,71.9,67.8,30.22,NNE,16,0.0,0.0,87,0.00,CLR,,0.00,WeatherDisplay:10.37,2013-09-10 02:48:00,
2013-09-09 22:51:00,72.4,68.6,30.22,NNE,16,0.0,0.0,88,0.00,CLR,,0.00,WeatherDisplay:10.37,2013-09-10 02:51:00,
2013-09-09 22:53:00,72.7,68.9,30.22,NNE,16,0.0,0.0,88,0.00,CLR,,0.00,WeatherDisplay:10.37,2013-09-10 02:53:00,
2013-09-09 22:54:00,72.6,68.5,30.22,NNE,16,0.0,0.0,87,0.00,CLR,,0.00,WeatherDisplay:10.37,2013-09-10 02:54:00,
2013-09-09 22:56:00,72.7,68.6,30.22,NNE,16,0.0,0.0,87,0.00,CLR,,0.00,WeatherDisplay:10.37,2013-09-10 02:56:00,
2013-09-09 22:57:00,72.5,68.4,30.22,NNE,16,0.0,0.0,87,0.00,CLR,,0.00,WeatherDisplay:10.37,2013-09-10 02:57:00,
2013-09-09 22:58:00,72.6,68.5,30.22,NNE,16,0.0,0.0,87,0.00,CLR,,0.00,WeatherDisplay:10.37,2013-09-10 02:58:00,
2013-09-09 22:59:00,72.6,68.5,30.22,NNE,16,0.0,0.0,87,0.00,CLR,,0.00,WeatherDisplay:10.37,2013-09-10 02:59:00,
2013-09-09 23:02:00,72.5,68.7,30.22,NNE,16,0.0,0.0,88,0.00,CLR,,0.00,WeatherDisplay:10.37,2013-09-10 03:02:00,
2013-09-09 23:03:00,72.7,68.9,30.22,NNE,16,0.0,0.0,88,0.00,CLR,,0.00,WeatherDisplay:10.37,2013-09-10 03:03:00,
2013-09-09 23:04:00,72.6,68.8,30.22,NNE,16,0.0,0.0,88,0.00,CLR,,0.00,WeatherDisplay:10.37,2013-09-10 03:04:00,
2013-09-09 23:07:00,72.7,68.9,30.22,NNE,16,0.0,0.0,88,0.00,CLR,,0.00,WeatherDisplay:10.37,2013-09-10 03:07:00,
2013-09-09 23:08:00,72.9,69.1,30.22,NNE,16,0.0,0.0,88,0.00,CLR,,0.00,WeatherDisplay:10.37,2013-09-10 03:08:00,
2013-09-09 23:09:00,72.9,69.1,30.22,NNE,16,0.0,0.0,88,0.00,CLR,,0.00,WeatherDisplay:10.37,2013-09-10 03:09:00,
2013-09-09 23:10:00,73.0,68.9,30.22,NNE,16,0.0,0.0,87,0.00,CLR,,0.00,WeatherDisplay:10.37,2013-09-10 03:10:00,
2013-09-09 23:13:00,72.7,68.6,30.22,NNE,16,0.0,0.0,87,0.00,CLR,,0.00,WeatherDisplay:10.37,2013-09-10 03:13:00,
2013-09-09 23:14:00,72.9,68.8,30.22,NNE,16,0.0,0.0,87,0.00,CLR,,0.00,WeatherDisplay:10.37,2013-09-10 03:14:00,
2013-09-09 23:15:00,72.9,68.8,30.22,NNE,16,0.0,0.0,87,0.00,CLR,,0.00,WeatherDisplay:10.37,2013-09-10 03:15:00,
2013-09-09 23:16:00,73.0,68.9,30.22,NNE,16,0.0,0.0,87,0.00,CLR,,0.00,WeatherDisplay:10.37,2013-09-10 03:16:00,
2013-09-09 23:18:00,73.0,68.9,30.22,NNE,16,0.0,0.0,87,0.00,CLR,,0.00,WeatherDisplay:10.37,2013-09-10 03:18:00,
2013-09-09 23:19:00,72.8,68.7,30.22,NNE,16,0.0,0.0,87,0.00,CLR,,0.00,WeatherDisplay:10.37,2013-09-10 03:19:00,
2013-09-09 23:20:00,73.1,69.0,30.22,NNE,16,0.0,0.0,87,0.00,CLR,,0.00,WeatherDisplay:10.37,2013-09-10 03:20:00,
2013-09-09 23:21:00,73.1,69.0,30.22,NNE,16,0.0,0.0,87,0.00,CLR,,0.00,WeatherDisplay:10.37,2013-09-10 03:21:00,
2013-09-09 23:23:00,73.0,68.9,30.22,NNE,16,0.0,0.0,87,0.00,CLR,,0.00,WeatherDisplay:10.37,2013-09-10 03:23:00,
2013-09-09 23:24:00,73.0,68.9,30.22,NNE,16,0.0,0.0,87,0.00,CLR,,0.00,WeatherDisplay:10.37,2013-09-10 03:24:00,
2013-09-09 23:25:00,73.0,68.9,30.22,NNE,16,0.0,0.0,87,0.00,CLR,,0.00,WeatherDisplay:10.37,2013-09-10 03:25:00,
2013-09-09 23:26:00,73.0,68.9,30.22,NNE,16,0.0,0.0,87,0.00,CLR,,0.00,WeatherDisplay:10.37,2013-09-10 03:26:00,
2013-09-09 23:27:00,72.9,68.8,30.22,NNE,16,0.0,0.0,87,0.00,CLR,,0.00,WeatherDisplay:10.37,2013-09-10 03:27:00,
2013-09-09 23:29:00,73.0,68.6,30.22,NNE,16,0.0,0.0,86,0.00,CLR,,0.00,WeatherDisplay:10.37,2013-09-10 03:29:00,
2013-09-09 23:30:00,72.8,68.4,30.22,NNE,16,0.0,0.0,86,0.00,CLR,,0.00,WeatherDisplay:10.37,2013-09-10 03:30:00,
2013-09-09 23:31:00,73.0,68.9,30.22,NNE,16,0.0,0.0,87,0.00,CLR,,0.00,WeatherDisplay:10.37,2013-09-10 03:31:00,
2013-09-09 23:32:00,73.1,69.0,30.22,NNE,16,0.0,0.0,87,0.00,CLR,,0.00,WeatherDisplay:10.37,2013-09-10 03:32:00,
2013-09-09 23:34:00,73.1,68.7,30.22,NNE,16,0.0,0.0,86,0.00,CLR,,0.00,WeatherDisplay:10.37,2013-09-10 03:34:00,
2013-09-09 23:35:00,72.9,68.5,30.22,NNE,16,0.0,0.0,86,0.00,CLR,,0.00,WeatherDisplay:10.37,2013-09-10 03:35:00,
2013-09-09 23:36:00,73.0,68.9,30.22,NNE,16,0.0,0.0,87,0.00,CLR,,0.00,WeatherDisplay:10.37,2013-09-10 03:36:00,
2013-09-09 23:38:00,73.3,69.2,30.22,NNE,16,0.0,0.0,87,0.00,CLR,,0.00,WeatherDisplay:10.37,2013-09-10 03:38:00,
2013-09-09 23:39:00,73.1,68.7,30.22,NNE,16,0.0,0.0,86,0.00,CLR,,0.00,WeatherDisplay:10.37,2013-09-10 03:39:00,
2013-09-09 23:40:00,73.1,68.7,30.22,NNE,16,0.0,0.0,86,0.00,CLR,,0.00,WeatherDisplay:10.37,2013-09-10 03:40:00,
2013-09-09 23:41:00,72.9,68.5,30.22,NNE,16,0.0,0.0,86,0.00,CLR,,0.00,WeatherDisplay:10.37,2013-09-10 03:41:00,
2013-09-09 23:44:00,72.9,68.8,30.22,NNE,16,0.0,0.0,87,0.00,CLR,,0.00,WeatherDisplay:10.37,2013-09-10 03:44:00,
2013-09-09 23:45:00,73.1,68.7,30.22,NNE,16,0.0,0.0,86,0.00,CLR,,0.00,WeatherDisplay:10.37,2013-09-10 03:45:00,
2013-09-09 23:46:00,73.0,68.6,30.22,NNE,16,0.0,0.0,86,0.00,CLR,,0.00,WeatherDisplay:10.37,2013-09-10 03:46:00,
2013-09-09 23:49:00,72.9,68.5,30.22,NNE,16,0.0,0.0,86,0.00,CLR,,0.00,WeatherDisplay:10.37,2013-09-10 03:49:00,
2013-09-09 23:50:00,72.6,68.2,30.22,NNE,16,0.0,0.0,86,0.00,CLR,,0.00,WeatherDisplay:10.37,2013-09-10 03:50:00,
2013-09-09 23:51:00,72.8,68.4,30.22,NNE,16,0.0,0.0,86,0.00,CLR,,0.00,WeatherDisplay:10.37,2013-09-10 03:51:00,
2013-09-09 23:54:00,72.8,68.7,30.22,NNE,16,0.0,0.0,87,0.00,CLR,,0.00,WeatherDisplay:10.37,2013-09-10 03:54:00,
2013-09-09 23:55:00,72.7,68.6,30.22,NNE,16,0.0,0.0,87,0.00,CLR,,0.00,WeatherDisplay:10.37,2013-09-10 03:55:00,
2013-09-09 23:56:00,72.7,68.6,30.22,NNE,16,0.0,0.0,87,0.00,CLR,,0.00,WeatherDisplay:10.37,2013-09-10 03:56:00,